<?xml version="1.0" encoding="UTF-8" standalone="no" ?>
<gpx xmlns="http://www.topografix.com/GPX/1/1" xmlns:xsi="http://www.w3.org/2001/XMLSchema-instance" xsi:schemaLocation="http://www.topografix.com/GPX/1/1 http://www.topografix.com/GPX/1/1/gpx.xsd" version="1.1" creator="VisuGPX - https://www.visugpx.com">
  <metadata>
    <name>tillenay</name>
    <desc><![CDATA[Gros peloton pour cette sortie cyclos]]></desc>
  </metadata>
  <trk>
    <name><![CDATA[tillenay]]></name>
    <trkseg>
      <trkpt lat="47.07521" lon="5.49068">
        <ele>197</ele>
        <time>2012-04-06T13:45:39Z</time>
      </trkpt>
      <trkpt lat="47.07521" lon="5.49068">
        <ele>200</ele>
        <time>2012-04-06T13:45:54Z</time>
      </trkpt>
      <trkpt lat="47.07519" lon="5.49069">
        <ele>204</ele>
        <time>2012-04-06T13:46:19Z</time>
      </trkpt>
      <trkpt lat="47.07519" lon="5.49067">
        <ele>201</ele>
        <time>2012-04-06T13:46:26Z</time>
      </trkpt>
      <trkpt lat="47.07518" lon="5.49068">
        <ele>202</ele>
        <time>2012-04-06T13:47:04Z</time>
      </trkpt>
      <trkpt lat="47.07519" lon="5.49066">
        <ele>203</ele>
        <time>2012-04-06T13:47:22Z</time>
      </trkpt>
      <trkpt lat="47.07519" lon="5.49066">
        <ele>203</ele>
        <time>2012-04-06T13:48:11Z</time>
      </trkpt>
      <trkpt lat="47.07518" lon="5.49066">
        <ele>204</ele>
        <time>2012-04-06T13:50:14Z</time>
      </trkpt>
      <trkpt lat="47.07527" lon="5.49077">
        <ele>204</ele>
        <time>2012-04-06T13:50:20Z</time>
      </trkpt>
      <trkpt lat="47.0756" lon="5.49104">
        <ele>205</ele>
        <time>2012-04-06T13:50:34Z</time>
      </trkpt>
      <trkpt lat="47.07601" lon="5.4908">
        <ele>206</ele>
        <time>2012-04-06T13:50:47Z</time>
      </trkpt>
      <trkpt lat="47.07658" lon="5.49009">
        <ele>206</ele>
        <time>2012-04-06T13:51:05Z</time>
      </trkpt>
      <trkpt lat="47.07679" lon="5.48986">
        <ele>205</ele>
        <time>2012-04-06T13:51:11Z</time>
      </trkpt>
      <trkpt lat="47.07696" lon="5.48943">
        <ele>205</ele>
        <time>2012-04-06T13:51:18Z</time>
      </trkpt>
      <trkpt lat="47.07698" lon="5.48928">
        <ele>205</ele>
        <time>2012-04-06T13:51:20Z</time>
      </trkpt>
      <trkpt lat="47.07726" lon="5.48893">
        <ele>205</ele>
        <time>2012-04-06T13:51:28Z</time>
      </trkpt>
      <trkpt lat="47.07736" lon="5.48898">
        <ele>205</ele>
        <time>2012-04-06T13:51:31Z</time>
      </trkpt>
      <trkpt lat="47.07747" lon="5.4892">
        <ele>204</ele>
        <time>2012-04-06T13:51:37Z</time>
      </trkpt>
      <trkpt lat="47.0773" lon="5.48951">
        <ele>204</ele>
        <time>2012-04-06T13:51:43Z</time>
      </trkpt>
      <trkpt lat="47.07651" lon="5.49036">
        <ele>205</ele>
        <time>2012-04-06T13:52:01Z</time>
      </trkpt>
      <trkpt lat="47.07578" lon="5.49154">
        <ele>206</ele>
        <time>2012-04-06T13:52:21Z</time>
      </trkpt>
      <trkpt lat="47.07512" lon="5.49284">
        <ele>207</ele>
        <time>2012-04-06T13:52:44Z</time>
      </trkpt>
      <trkpt lat="47.07459" lon="5.49385">
        <ele>210</ele>
        <time>2012-04-06T13:53:04Z</time>
      </trkpt>
      <trkpt lat="47.07421" lon="5.49412">
        <ele>212</ele>
        <time>2012-04-06T13:53:16Z</time>
      </trkpt>
      <trkpt lat="47.07381" lon="5.49372">
        <ele>215</ele>
        <time>2012-04-06T13:53:29Z</time>
      </trkpt>
      <trkpt lat="47.07326" lon="5.49304">
        <ele>216</ele>
        <time>2012-04-06T13:53:46Z</time>
      </trkpt>
      <trkpt lat="47.07252" lon="5.49202">
        <ele>216</ele>
        <time>2012-04-06T13:54:07Z</time>
      </trkpt>
      <trkpt lat="47.07237" lon="5.49178">
        <ele>215</ele>
        <time>2012-04-06T13:54:11Z</time>
      </trkpt>
      <trkpt lat="47.07202" lon="5.49072">
        <ele>215</ele>
        <time>2012-04-06T13:54:25Z</time>
      </trkpt>
      <trkpt lat="47.07147" lon="5.48963">
        <ele>214</ele>
        <time>2012-04-06T13:54:39Z</time>
      </trkpt>
      <trkpt lat="47.07087" lon="5.48842">
        <ele>214</ele>
        <time>2012-04-06T13:54:55Z</time>
      </trkpt>
      <trkpt lat="47.07018" lon="5.48767">
        <ele>213</ele>
        <time>2012-04-06T13:55:10Z</time>
      </trkpt>
      <trkpt lat="47.06999" lon="5.48747">
        <ele>213</ele>
        <time>2012-04-06T13:55:14Z</time>
      </trkpt>
      <trkpt lat="47.0698" lon="5.48714">
        <ele>212</ele>
        <time>2012-04-06T13:55:19Z</time>
      </trkpt>
      <trkpt lat="47.06922" lon="5.48698">
        <ele>213</ele>
        <time>2012-04-06T13:55:30Z</time>
      </trkpt>
      <trkpt lat="47.06885" lon="5.48714">
        <ele>213</ele>
        <time>2012-04-06T13:55:37Z</time>
      </trkpt>
      <trkpt lat="47.06796" lon="5.48801">
        <ele>214</ele>
        <time>2012-04-06T13:55:57Z</time>
      </trkpt>
      <trkpt lat="47.0675" lon="5.48846">
        <ele>215</ele>
        <time>2012-04-06T13:56:08Z</time>
      </trkpt>
      <trkpt lat="47.06717" lon="5.48844">
        <ele>214</ele>
        <time>2012-04-06T13:56:15Z</time>
      </trkpt>
      <trkpt lat="47.06674" lon="5.48785">
        <ele>212</ele>
        <time>2012-04-06T13:56:25Z</time>
      </trkpt>
      <trkpt lat="47.06651" lon="5.4874">
        <ele>210</ele>
        <time>2012-04-06T13:56:30Z</time>
      </trkpt>
      <trkpt lat="47.06639" lon="5.48682">
        <ele>210</ele>
        <time>2012-04-06T13:56:35Z</time>
      </trkpt>
      <trkpt lat="47.0664" lon="5.4866">
        <ele>210</ele>
        <time>2012-04-06T13:56:37Z</time>
      </trkpt>
      <trkpt lat="47.06654" lon="5.48599">
        <ele>210</ele>
        <time>2012-04-06T13:56:43Z</time>
      </trkpt>
      <trkpt lat="47.06666" lon="5.48492">
        <ele>211</ele>
        <time>2012-04-06T13:56:58Z</time>
      </trkpt>
      <trkpt lat="47.06669" lon="5.4847">
        <ele>211</ele>
        <time>2012-04-06T13:57:02Z</time>
      </trkpt>
      <trkpt lat="47.0666" lon="5.48452">
        <ele>211</ele>
        <time>2012-04-06T13:57:06Z</time>
      </trkpt>
      <trkpt lat="47.06598" lon="5.48436">
        <ele>210</ele>
        <time>2012-04-06T13:57:18Z</time>
      </trkpt>
      <trkpt lat="47.06566" lon="5.48383">
        <ele>210</ele>
        <time>2012-04-06T13:57:26Z</time>
      </trkpt>
      <trkpt lat="47.06554" lon="5.4834">
        <ele>209</ele>
        <time>2012-04-06T13:57:31Z</time>
      </trkpt>
      <trkpt lat="47.06528" lon="5.48296">
        <ele>209</ele>
        <time>2012-04-06T13:57:38Z</time>
      </trkpt>
      <trkpt lat="47.06504" lon="5.48278">
        <ele>209</ele>
        <time>2012-04-06T13:57:43Z</time>
      </trkpt>
      <trkpt lat="47.06424" lon="5.48258">
        <ele>208</ele>
        <time>2012-04-06T13:57:58Z</time>
      </trkpt>
      <trkpt lat="47.06353" lon="5.48226">
        <ele>204</ele>
        <time>2012-04-06T13:58:09Z</time>
      </trkpt>
      <trkpt lat="47.06281" lon="5.48211">
        <ele>202</ele>
        <time>2012-04-06T13:58:17Z</time>
      </trkpt>
      <trkpt lat="47.06255" lon="5.48209">
        <ele>202</ele>
        <time>2012-04-06T13:58:20Z</time>
      </trkpt>
      <trkpt lat="47.06161" lon="5.48249">
        <ele>201</ele>
        <time>2012-04-06T13:58:32Z</time>
      </trkpt>
      <trkpt lat="47.06051" lon="5.48298">
        <ele>199</ele>
        <time>2012-04-06T13:58:48Z</time>
      </trkpt>
      <trkpt lat="47.05933" lon="5.48315">
        <ele>200</ele>
        <time>2012-04-06T13:59:06Z</time>
      </trkpt>
      <trkpt lat="47.0583" lon="5.48375">
        <ele>200</ele>
        <time>2012-04-06T13:59:24Z</time>
      </trkpt>
      <trkpt lat="47.05773" lon="5.48404">
        <ele>200</ele>
        <time>2012-04-06T13:59:34Z</time>
      </trkpt>
      <trkpt lat="47.05731" lon="5.48378">
        <ele>199</ele>
        <time>2012-04-06T13:59:42Z</time>
      </trkpt>
      <trkpt lat="47.05711" lon="5.48335">
        <ele>199</ele>
        <time>2012-04-06T13:59:47Z</time>
      </trkpt>
      <trkpt lat="47.05684" lon="5.48304">
        <ele>198</ele>
        <time>2012-04-06T13:59:52Z</time>
      </trkpt>
      <trkpt lat="47.05618" lon="5.48277">
        <ele>199</ele>
        <time>2012-04-06T14:00:04Z</time>
      </trkpt>
      <trkpt lat="47.05521" lon="5.48302">
        <ele>199</ele>
        <time>2012-04-06T14:00:20Z</time>
      </trkpt>
      <trkpt lat="47.05434" lon="5.48333">
        <ele>199</ele>
        <time>2012-04-06T14:00:35Z</time>
      </trkpt>
      <trkpt lat="47.05354" lon="5.48327">
        <ele>198</ele>
        <time>2012-04-06T14:00:47Z</time>
      </trkpt>
      <trkpt lat="47.05248" lon="5.48267">
        <ele>198</ele>
        <time>2012-04-06T14:01:04Z</time>
      </trkpt>
      <trkpt lat="47.05168" lon="5.4817">
        <ele>198</ele>
        <time>2012-04-06T14:01:20Z</time>
      </trkpt>
      <trkpt lat="47.05099" lon="5.48031">
        <ele>198</ele>
        <time>2012-04-06T14:01:39Z</time>
      </trkpt>
      <trkpt lat="47.05086" lon="5.4799">
        <ele>198</ele>
        <time>2012-04-06T14:01:44Z</time>
      </trkpt>
      <trkpt lat="47.05069" lon="5.47964">
        <ele>198</ele>
        <time>2012-04-06T14:01:48Z</time>
      </trkpt>
      <trkpt lat="47.04967" lon="5.47881">
        <ele>197</ele>
        <time>2012-04-06T14:02:06Z</time>
      </trkpt>
      <trkpt lat="47.04857" lon="5.47821">
        <ele>198</ele>
        <time>2012-04-06T14:02:25Z</time>
      </trkpt>
      <trkpt lat="47.04715" lon="5.47772">
        <ele>197</ele>
        <time>2012-04-06T14:02:48Z</time>
      </trkpt>
      <trkpt lat="47.04608" lon="5.47678">
        <ele>197</ele>
        <time>2012-04-06T14:03:08Z</time>
      </trkpt>
      <trkpt lat="47.04487" lon="5.47533">
        <ele>197</ele>
        <time>2012-04-06T14:03:32Z</time>
      </trkpt>
      <trkpt lat="47.04386" lon="5.47435">
        <ele>197</ele>
        <time>2012-04-06T14:03:52Z</time>
      </trkpt>
      <trkpt lat="47.04291" lon="5.47366">
        <ele>197</ele>
        <time>2012-04-06T14:04:10Z</time>
      </trkpt>
      <trkpt lat="47.04279" lon="5.47321">
        <ele>197</ele>
        <time>2012-04-06T14:04:17Z</time>
      </trkpt>
      <trkpt lat="47.04295" lon="5.47273">
        <ele>198</ele>
        <time>2012-04-06T14:04:24Z</time>
      </trkpt>
      <trkpt lat="47.04301" lon="5.47208">
        <ele>197</ele>
        <time>2012-04-06T14:04:33Z</time>
      </trkpt>
      <trkpt lat="47.04303" lon="5.47188">
        <ele>197</ele>
        <time>2012-04-06T14:04:36Z</time>
      </trkpt>
      <trkpt lat="47.04327" lon="5.47154">
        <ele>197</ele>
        <time>2012-04-06T14:04:45Z</time>
      </trkpt>
      <trkpt lat="47.0441" lon="5.47136">
        <ele>198</ele>
        <time>2012-04-06T14:04:59Z</time>
      </trkpt>
      <trkpt lat="47.04532" lon="5.47096">
        <ele>196</ele>
        <time>2012-04-06T14:05:21Z</time>
      </trkpt>
      <trkpt lat="47.04643" lon="5.47075">
        <ele>198</ele>
        <time>2012-04-06T14:05:41Z</time>
      </trkpt>
      <trkpt lat="47.04736" lon="5.47039">
        <ele>196</ele>
        <time>2012-04-06T14:05:57Z</time>
      </trkpt>
      <trkpt lat="47.04826" lon="5.47011">
        <ele>197</ele>
        <time>2012-04-06T14:06:13Z</time>
      </trkpt>
      <trkpt lat="47.04974" lon="5.46947">
        <ele>197</ele>
        <time>2012-04-06T14:06:40Z</time>
      </trkpt>
      <trkpt lat="47.05059" lon="5.46844">
        <ele>197</ele>
        <time>2012-04-06T14:06:59Z</time>
      </trkpt>
      <trkpt lat="47.05182" lon="5.46695">
        <ele>197</ele>
        <time>2012-04-06T14:07:26Z</time>
      </trkpt>
      <trkpt lat="47.05277" lon="5.46593">
        <ele>196</ele>
        <time>2012-04-06T14:07:47Z</time>
      </trkpt>
      <trkpt lat="47.05361" lon="5.46519">
        <ele>198</ele>
        <time>2012-04-06T14:08:04Z</time>
      </trkpt>
      <trkpt lat="47.05426" lon="5.46459">
        <ele>202</ele>
        <time>2012-04-06T14:08:20Z</time>
      </trkpt>
      <trkpt lat="47.05496" lon="5.46387">
        <ele>201</ele>
        <time>2012-04-06T14:08:38Z</time>
      </trkpt>
      <trkpt lat="47.05549" lon="5.46333">
        <ele>200</ele>
        <time>2012-04-06T14:08:52Z</time>
      </trkpt>
      <trkpt lat="47.05626" lon="5.46318">
        <ele>197</ele>
        <time>2012-04-06T14:09:05Z</time>
      </trkpt>
      <trkpt lat="47.05725" lon="5.46337">
        <ele>196</ele>
        <time>2012-04-06T14:09:21Z</time>
      </trkpt>
      <trkpt lat="47.0584" lon="5.46352">
        <ele>196</ele>
        <time>2012-04-06T14:09:40Z</time>
      </trkpt>
      <trkpt lat="47.05863" lon="5.46345">
        <ele>196</ele>
        <time>2012-04-06T14:09:44Z</time>
      </trkpt>
      <trkpt lat="47.05978" lon="5.46252">
        <ele>197</ele>
        <time>2012-04-06T14:10:07Z</time>
      </trkpt>
      <trkpt lat="47.06074" lon="5.4616">
        <ele>199</ele>
        <time>2012-04-06T14:10:30Z</time>
      </trkpt>
      <trkpt lat="47.06092" lon="5.46119">
        <ele>202</ele>
        <time>2012-04-06T14:10:40Z</time>
      </trkpt>
      <trkpt lat="47.06103" lon="5.46089">
        <ele>201</ele>
        <time>2012-04-06T14:10:47Z</time>
      </trkpt>
      <trkpt lat="47.0613" lon="5.46065">
        <ele>200</ele>
        <time>2012-04-06T14:10:53Z</time>
      </trkpt>
      <trkpt lat="47.0616" lon="5.46064">
        <ele>199</ele>
        <time>2012-04-06T14:10:58Z</time>
      </trkpt>
      <trkpt lat="47.06184" lon="5.46061">
        <ele>197</ele>
        <time>2012-04-06T14:11:02Z</time>
      </trkpt>
      <trkpt lat="47.06209" lon="5.46029">
        <ele>197</ele>
        <time>2012-04-06T14:11:10Z</time>
      </trkpt>
      <trkpt lat="47.06216" lon="5.45981">
        <ele>198</ele>
        <time>2012-04-06T14:11:21Z</time>
      </trkpt>
      <trkpt lat="47.06229" lon="5.45947">
        <ele>198</ele>
        <time>2012-04-06T14:11:35Z</time>
      </trkpt>
      <trkpt lat="47.06241" lon="5.45907">
        <ele>198</ele>
        <time>2012-04-06T14:11:45Z</time>
      </trkpt>
      <trkpt lat="47.06232" lon="5.45859">
        <ele>199</ele>
        <time>2012-04-06T14:11:54Z</time>
      </trkpt>
      <trkpt lat="47.062" lon="5.45761">
        <ele>200</ele>
        <time>2012-04-06T14:12:09Z</time>
      </trkpt>
      <trkpt lat="47.06171" lon="5.45688">
        <ele>202</ele>
        <time>2012-04-06T14:12:20Z</time>
      </trkpt>
      <trkpt lat="47.06169" lon="5.45642">
        <ele>204</ele>
        <time>2012-04-06T14:12:27Z</time>
      </trkpt>
      <trkpt lat="47.06194" lon="5.45589">
        <ele>207</ele>
        <time>2012-04-06T14:12:39Z</time>
      </trkpt>
      <trkpt lat="47.06222" lon="5.45542">
        <ele>211</ele>
        <time>2012-04-06T14:12:53Z</time>
      </trkpt>
      <trkpt lat="47.06248" lon="5.45493">
        <ele>214</ele>
        <time>2012-04-06T14:13:05Z</time>
      </trkpt>
      <trkpt lat="47.06255" lon="5.45479">
        <ele>215</ele>
        <time>2012-04-06T14:13:09Z</time>
      </trkpt>
      <trkpt lat="47.06283" lon="5.45425">
        <ele>218</ele>
        <time>2012-04-06T14:13:23Z</time>
      </trkpt>
      <trkpt lat="47.06315" lon="5.45359">
        <ele>220</ele>
        <time>2012-04-06T14:13:42Z</time>
      </trkpt>
      <trkpt lat="47.06321" lon="5.45355">
        <ele>220</ele>
        <time>2012-04-06T14:13:55Z</time>
      </trkpt>
      <trkpt lat="47.06322" lon="5.45355">
        <ele>220</ele>
        <time>2012-04-06T14:14:07Z</time>
      </trkpt>
      <trkpt lat="47.06343" lon="5.45326">
        <ele>221</ele>
        <time>2012-04-06T14:14:19Z</time>
      </trkpt>
      <trkpt lat="47.06385" lon="5.45282">
        <ele>220</ele>
        <time>2012-04-06T14:14:34Z</time>
      </trkpt>
      <trkpt lat="47.06425" lon="5.45232">
        <ele>219</ele>
        <time>2012-04-06T14:14:50Z</time>
      </trkpt>
      <trkpt lat="47.06474" lon="5.45163">
        <ele>218</ele>
        <time>2012-04-06T14:15:11Z</time>
      </trkpt>
      <trkpt lat="47.06485" lon="5.45149">
        <ele>218</ele>
        <time>2012-04-06T14:15:23Z</time>
      </trkpt>
      <trkpt lat="47.06507" lon="5.45162">
        <ele>219</ele>
        <time>2012-04-06T14:15:37Z</time>
      </trkpt>
      <trkpt lat="47.06531" lon="5.45213">
        <ele>220</ele>
        <time>2012-04-06T14:15:50Z</time>
      </trkpt>
      <trkpt lat="47.06531" lon="5.45235">
        <ele>221</ele>
        <time>2012-04-06T14:15:57Z</time>
      </trkpt>
      <trkpt lat="47.06538" lon="5.45248">
        <ele>221</ele>
        <time>2012-04-06T14:16:01Z</time>
      </trkpt>
      <trkpt lat="47.06587" lon="5.45256">
        <ele>221</ele>
        <time>2012-04-06T14:16:15Z</time>
      </trkpt>
      <trkpt lat="47.06625" lon="5.45281">
        <ele>222</ele>
        <time>2012-04-06T14:16:25Z</time>
      </trkpt>
      <trkpt lat="47.06678" lon="5.45316">
        <ele>223</ele>
        <time>2012-04-06T14:16:40Z</time>
      </trkpt>
      <trkpt lat="47.06755" lon="5.4536">
        <ele>225</ele>
        <time>2012-04-06T14:17:01Z</time>
      </trkpt>
      <trkpt lat="47.06786" lon="5.45395">
        <ele>226</ele>
        <time>2012-04-06T14:17:15Z</time>
      </trkpt>
      <trkpt lat="47.06792" lon="5.45394">
        <ele>226</ele>
        <time>2012-04-06T14:17:17Z</time>
      </trkpt>
      <trkpt lat="47.06801" lon="5.45376">
        <ele>226</ele>
        <time>2012-04-06T14:17:22Z</time>
      </trkpt>
      <trkpt lat="47.0685" lon="5.45337">
        <ele>226</ele>
        <time>2012-04-06T14:17:34Z</time>
      </trkpt>
      <trkpt lat="47.06919" lon="5.45354">
        <ele>227</ele>
        <time>2012-04-06T14:17:48Z</time>
      </trkpt>
      <trkpt lat="47.0703" lon="5.45419">
        <ele>227</ele>
        <time>2012-04-06T14:18:10Z</time>
      </trkpt>
      <trkpt lat="47.07162" lon="5.4551">
        <ele>228</ele>
        <time>2012-04-06T14:18:35Z</time>
      </trkpt>
      <trkpt lat="47.07273" lon="5.4563">
        <ele>228</ele>
        <time>2012-04-06T14:18:59Z</time>
      </trkpt>
      <trkpt lat="47.07359" lon="5.45747">
        <ele>228</ele>
        <time>2012-04-06T14:19:20Z</time>
      </trkpt>
      <trkpt lat="47.07404" lon="5.45808">
        <ele>228</ele>
        <time>2012-04-06T14:19:32Z</time>
      </trkpt>
      <trkpt lat="47.07445" lon="5.459">
        <ele>225</ele>
        <time>2012-04-06T14:19:47Z</time>
      </trkpt>
      <trkpt lat="47.07458" lon="5.45916">
        <ele>225</ele>
        <time>2012-04-06T14:19:53Z</time>
      </trkpt>
      <trkpt lat="47.07473" lon="5.45905">
        <ele>224</ele>
        <time>2012-04-06T14:19:57Z</time>
      </trkpt>
      <trkpt lat="47.07538" lon="5.45806">
        <ele>223</ele>
        <time>2012-04-06T14:20:13Z</time>
      </trkpt>
      <trkpt lat="47.07619" lon="5.4567">
        <ele>220</ele>
        <time>2012-04-06T14:20:34Z</time>
      </trkpt>
      <trkpt lat="47.07675" lon="5.45577">
        <ele>217</ele>
        <time>2012-04-06T14:20:45Z</time>
      </trkpt>
      <trkpt lat="47.07742" lon="5.45465">
        <ele>214</ele>
        <time>2012-04-06T14:20:57Z</time>
      </trkpt>
      <trkpt lat="47.07782" lon="5.45401">
        <ele>211</ele>
        <time>2012-04-06T14:21:04Z</time>
      </trkpt>
      <trkpt lat="47.07793" lon="5.4539">
        <ele>210</ele>
        <time>2012-04-06T14:21:06Z</time>
      </trkpt>
      <trkpt lat="47.07829" lon="5.45403">
        <ele>210</ele>
        <time>2012-04-06T14:21:12Z</time>
      </trkpt>
      <trkpt lat="47.07856" lon="5.4544">
        <ele>210</ele>
        <time>2012-04-06T14:21:18Z</time>
      </trkpt>
      <trkpt lat="47.07881" lon="5.45457">
        <ele>209</ele>
        <time>2012-04-06T14:21:23Z</time>
      </trkpt>
      <trkpt lat="47.07919" lon="5.45473">
        <ele>209</ele>
        <time>2012-04-06T14:21:33Z</time>
      </trkpt>
      <trkpt lat="47.07934" lon="5.45459">
        <ele>210</ele>
        <time>2012-04-06T14:21:38Z</time>
      </trkpt>
      <trkpt lat="47.07936" lon="5.45444">
        <ele>210</ele>
        <time>2012-04-06T14:21:40Z</time>
      </trkpt>
      <trkpt lat="47.07963" lon="5.45385">
        <ele>210</ele>
        <time>2012-04-06T14:21:49Z</time>
      </trkpt>
      <trkpt lat="47.08011" lon="5.45328">
        <ele>210</ele>
        <time>2012-04-06T14:22:02Z</time>
      </trkpt>
      <trkpt lat="47.08026" lon="5.45331">
        <ele>211</ele>
        <time>2012-04-06T14:22:06Z</time>
      </trkpt>
      <trkpt lat="47.08055" lon="5.45369">
        <ele>213</ele>
        <time>2012-04-06T14:22:15Z</time>
      </trkpt>
      <trkpt lat="47.08137" lon="5.45402">
        <ele>214</ele>
        <time>2012-04-06T14:22:32Z</time>
      </trkpt>
      <trkpt lat="47.08175" lon="5.45426">
        <ele>213</ele>
        <time>2012-04-06T14:22:40Z</time>
      </trkpt>
      <trkpt lat="47.08248" lon="5.4553">
        <ele>212</ele>
        <time>2012-04-06T14:22:58Z</time>
      </trkpt>
      <trkpt lat="47.08273" lon="5.45565">
        <ele>212</ele>
        <time>2012-04-06T14:23:04Z</time>
      </trkpt>
      <trkpt lat="47.0832" lon="5.45595">
        <ele>213</ele>
        <time>2012-04-06T14:23:14Z</time>
      </trkpt>
      <trkpt lat="47.08331" lon="5.45606">
        <ele>213</ele>
        <time>2012-04-06T14:23:17Z</time>
      </trkpt>
      <trkpt lat="47.08347" lon="5.45606">
        <ele>214</ele>
        <time>2012-04-06T14:23:21Z</time>
      </trkpt>
      <trkpt lat="47.08373" lon="5.45583">
        <ele>213</ele>
        <time>2012-04-06T14:23:27Z</time>
      </trkpt>
      <trkpt lat="47.08419" lon="5.45565">
        <ele>213</ele>
        <time>2012-04-06T14:23:40Z</time>
      </trkpt>
      <trkpt lat="47.08499" lon="5.45542">
        <ele>215</ele>
        <time>2012-04-06T14:23:57Z</time>
      </trkpt>
      <trkpt lat="47.08605" lon="5.45499">
        <ele>217</ele>
        <time>2012-04-06T14:24:19Z</time>
      </trkpt>
      <trkpt lat="47.08645" lon="5.45477">
        <ele>217</ele>
        <time>2012-04-06T14:24:28Z</time>
      </trkpt>
      <trkpt lat="47.08665" lon="5.45489">
        <ele>218</ele>
        <time>2012-04-06T14:24:33Z</time>
      </trkpt>
      <trkpt lat="47.08754" lon="5.45589">
        <ele>218</ele>
        <time>2012-04-06T14:24:55Z</time>
      </trkpt>
      <trkpt lat="47.08838" lon="5.45658">
        <ele>218</ele>
        <time>2012-04-06T14:25:14Z</time>
      </trkpt>
      <trkpt lat="47.08955" lon="5.45735">
        <ele>217</ele>
        <time>2012-04-06T14:25:37Z</time>
      </trkpt>
      <trkpt lat="47.09052" lon="5.45777">
        <ele>218</ele>
        <time>2012-04-06T14:25:56Z</time>
      </trkpt>
      <trkpt lat="47.0912" lon="5.45754">
        <ele>221</ele>
        <time>2012-04-06T14:26:11Z</time>
      </trkpt>
      <trkpt lat="47.09174" lon="5.45745">
        <ele>223</ele>
        <time>2012-04-06T14:26:24Z</time>
      </trkpt>
      <trkpt lat="47.09288" lon="5.45773">
        <ele>223</ele>
        <time>2012-04-06T14:26:46Z</time>
      </trkpt>
      <trkpt lat="47.09344" lon="5.45795">
        <ele>225</ele>
        <time>2012-04-06T14:26:58Z</time>
      </trkpt>
      <trkpt lat="47.09366" lon="5.4579">
        <ele>225</ele>
        <time>2012-04-06T14:27:03Z</time>
      </trkpt>
      <trkpt lat="47.09395" lon="5.45758">
        <ele>225</ele>
        <time>2012-04-06T14:27:12Z</time>
      </trkpt>
      <trkpt lat="47.09404" lon="5.45751">
        <ele>226</ele>
        <time>2012-04-06T14:27:14Z</time>
      </trkpt>
      <trkpt lat="47.0944" lon="5.4576">
        <ele>227</ele>
        <time>2012-04-06T14:27:22Z</time>
      </trkpt>
      <trkpt lat="47.09536" lon="5.45858">
        <ele>228</ele>
        <time>2012-04-06T14:27:45Z</time>
      </trkpt>
      <trkpt lat="47.09602" lon="5.45866">
        <ele>230</ele>
        <time>2012-04-06T14:28:00Z</time>
      </trkpt>
      <trkpt lat="47.09663" lon="5.4588">
        <ele>234</ele>
        <time>2012-04-06T14:28:13Z</time>
      </trkpt>
      <trkpt lat="47.09761" lon="5.45904">
        <ele>235</ele>
        <time>2012-04-06T14:28:34Z</time>
      </trkpt>
      <trkpt lat="47.09839" lon="5.45924">
        <ele>239</ele>
        <time>2012-04-06T14:28:52Z</time>
      </trkpt>
      <trkpt lat="47.09911" lon="5.45933">
        <ele>242</ele>
        <time>2012-04-06T14:29:10Z</time>
      </trkpt>
      <trkpt lat="47.09922" lon="5.45931">
        <ele>242</ele>
        <time>2012-04-06T14:29:13Z</time>
      </trkpt>
      <trkpt lat="47.09975" lon="5.4593">
        <ele>243</ele>
        <time>2012-04-06T14:29:26Z</time>
      </trkpt>
      <trkpt lat="47.10029" lon="5.45925">
        <ele>244</ele>
        <time>2012-04-06T14:29:38Z</time>
      </trkpt>
      <trkpt lat="47.10087" lon="5.45925">
        <ele>245</ele>
        <time>2012-04-06T14:29:52Z</time>
      </trkpt>
      <trkpt lat="47.10106" lon="5.45952">
        <ele>246</ele>
        <time>2012-04-06T14:29:59Z</time>
      </trkpt>
      <trkpt lat="47.10136" lon="5.45971">
        <ele>247</ele>
        <time>2012-04-06T14:30:06Z</time>
      </trkpt>
      <trkpt lat="47.10157" lon="5.4597">
        <ele>248</ele>
        <time>2012-04-06T14:30:11Z</time>
      </trkpt>
      <trkpt lat="47.10223" lon="5.45997">
        <ele>249</ele>
        <time>2012-04-06T14:30:26Z</time>
      </trkpt>
      <trkpt lat="47.10309" lon="5.46033">
        <ele>249</ele>
        <time>2012-04-06T14:30:46Z</time>
      </trkpt>
      <trkpt lat="47.1035" lon="5.4601">
        <ele>249</ele>
        <time>2012-04-06T14:31:02Z</time>
      </trkpt>
      <trkpt lat="47.10379" lon="5.46012">
        <ele>250</ele>
        <time>2012-04-06T14:31:10Z</time>
      </trkpt>
      <trkpt lat="47.10468" lon="5.46046">
        <ele>253</ele>
        <time>2012-04-06T14:31:32Z</time>
      </trkpt>
      <trkpt lat="47.10492" lon="5.46046">
        <ele>253</ele>
        <time>2012-04-06T14:31:37Z</time>
      </trkpt>
      <trkpt lat="47.10589" lon="5.45981">
        <ele>254</ele>
        <time>2012-04-06T14:31:58Z</time>
      </trkpt>
      <trkpt lat="47.10689" lon="5.45898">
        <ele>257</ele>
        <time>2012-04-06T14:32:22Z</time>
      </trkpt>
      <trkpt lat="47.10731" lon="5.45872">
        <ele>260</ele>
        <time>2012-04-06T14:32:33Z</time>
      </trkpt>
      <trkpt lat="47.10774" lon="5.45861">
        <ele>264</ele>
        <time>2012-04-06T14:32:45Z</time>
      </trkpt>
      <trkpt lat="47.10818" lon="5.45865">
        <ele>266</ele>
        <time>2012-04-06T14:32:58Z</time>
      </trkpt>
      <trkpt lat="47.10848" lon="5.45871">
        <ele>269</ele>
        <time>2012-04-06T14:33:07Z</time>
      </trkpt>
      <trkpt lat="47.10914" lon="5.45884">
        <ele>272</ele>
        <time>2012-04-06T14:33:26Z</time>
      </trkpt>
      <trkpt lat="47.10993" lon="5.45904">
        <ele>274</ele>
        <time>2012-04-06T14:33:47Z</time>
      </trkpt>
      <trkpt lat="47.11073" lon="5.45948">
        <ele>277</ele>
        <time>2012-04-06T14:34:09Z</time>
      </trkpt>
      <trkpt lat="47.11162" lon="5.45998">
        <ele>277</ele>
        <time>2012-04-06T14:34:33Z</time>
      </trkpt>
      <trkpt lat="47.11217" lon="5.46026">
        <ele>278</ele>
        <time>2012-04-06T14:34:53Z</time>
      </trkpt>
      <trkpt lat="47.11226" lon="5.46029">
        <ele>278</ele>
        <time>2012-04-06T14:35:08Z</time>
      </trkpt>
      <trkpt lat="47.11232" lon="5.46033">
        <ele>278</ele>
        <time>2012-04-06T14:35:11Z</time>
      </trkpt>
      <trkpt lat="47.11241" lon="5.46019">
        <ele>277</ele>
        <time>2012-04-06T14:35:16Z</time>
      </trkpt>
      <trkpt lat="47.11243" lon="5.45925">
        <ele>274</ele>
        <time>2012-04-06T14:35:26Z</time>
      </trkpt>
      <trkpt lat="47.11229" lon="5.4587">
        <ele>273</ele>
        <time>2012-04-06T14:35:31Z</time>
      </trkpt>
      <trkpt lat="47.11195" lon="5.45785">
        <ele>268</ele>
        <time>2012-04-06T14:35:38Z</time>
      </trkpt>
      <trkpt lat="47.11192" lon="5.4577">
        <ele>267</ele>
        <time>2012-04-06T14:35:39Z</time>
      </trkpt>
      <trkpt lat="47.11191" lon="5.45689">
        <ele>264</ele>
        <time>2012-04-06T14:35:44Z</time>
      </trkpt>
      <trkpt lat="47.11198" lon="5.45654">
        <ele>263</ele>
        <time>2012-04-06T14:35:46Z</time>
      </trkpt>
      <trkpt lat="47.11208" lon="5.45622">
        <ele>261</ele>
        <time>2012-04-06T14:35:48Z</time>
      </trkpt>
      <trkpt lat="47.11227" lon="5.45585">
        <ele>258</ele>
        <time>2012-04-06T14:35:51Z</time>
      </trkpt>
      <trkpt lat="47.11236" lon="5.45561">
        <ele>257</ele>
        <time>2012-04-06T14:35:53Z</time>
      </trkpt>
      <trkpt lat="47.11225" lon="5.45513">
        <ele>254</ele>
        <time>2012-04-06T14:35:57Z</time>
      </trkpt>
      <trkpt lat="47.11182" lon="5.45428">
        <ele>252</ele>
        <time>2012-04-06T14:36:04Z</time>
      </trkpt>
      <trkpt lat="47.11146" lon="5.45367">
        <ele>249</ele>
        <time>2012-04-06T14:36:09Z</time>
      </trkpt>
      <trkpt lat="47.11139" lon="5.45355">
        <ele>248</ele>
        <time>2012-04-06T14:36:10Z</time>
      </trkpt>
      <trkpt lat="47.11087" lon="5.45271">
        <ele>245</ele>
        <time>2012-04-06T14:36:17Z</time>
      </trkpt>
      <trkpt lat="47.11027" lon="5.45174">
        <ele>241</ele>
        <time>2012-04-06T14:36:26Z</time>
      </trkpt>
      <trkpt lat="47.1096" lon="5.45062">
        <ele>239</ele>
        <time>2012-04-06T14:36:38Z</time>
      </trkpt>
      <trkpt lat="47.10955" lon="5.45054">
        <ele>238</ele>
        <time>2012-04-06T14:36:39Z</time>
      </trkpt>
      <trkpt lat="47.10907" lon="5.44977">
        <ele>235</ele>
        <time>2012-04-06T14:36:49Z</time>
      </trkpt>
      <trkpt lat="47.10902" lon="5.4497">
        <ele>235</ele>
        <time>2012-04-06T14:36:50Z</time>
      </trkpt>
      <trkpt lat="47.10831" lon="5.44825">
        <ele>234</ele>
        <time>2012-04-06T14:37:07Z</time>
      </trkpt>
      <trkpt lat="47.10783" lon="5.44704">
        <ele>235</ele>
        <time>2012-04-06T14:37:22Z</time>
      </trkpt>
      <trkpt lat="47.1072" lon="5.44619">
        <ele>238</ele>
        <time>2012-04-06T14:37:38Z</time>
      </trkpt>
      <trkpt lat="47.10708" lon="5.44591">
        <ele>239</ele>
        <time>2012-04-06T14:37:43Z</time>
      </trkpt>
      <trkpt lat="47.10689" lon="5.44529">
        <ele>240</ele>
        <time>2012-04-06T14:37:52Z</time>
      </trkpt>
      <trkpt lat="47.10679" lon="5.44507">
        <ele>240</ele>
        <time>2012-04-06T14:37:56Z</time>
      </trkpt>
      <trkpt lat="47.10683" lon="5.44482">
        <ele>240</ele>
        <time>2012-04-06T14:38:00Z</time>
      </trkpt>
      <trkpt lat="47.10741" lon="5.4435">
        <ele>240</ele>
        <time>2012-04-06T14:38:22Z</time>
      </trkpt>
      <trkpt lat="47.10784" lon="5.44247">
        <ele>237</ele>
        <time>2012-04-06T14:38:37Z</time>
      </trkpt>
      <trkpt lat="47.10818" lon="5.44166">
        <ele>234</ele>
        <time>2012-04-06T14:38:46Z</time>
      </trkpt>
      <trkpt lat="47.10827" lon="5.44145">
        <ele>233</ele>
        <time>2012-04-06T14:38:48Z</time>
      </trkpt>
      <trkpt lat="47.10866" lon="5.4411">
        <ele>231</ele>
        <time>2012-04-06T14:38:54Z</time>
      </trkpt>
      <trkpt lat="47.10882" lon="5.44104">
        <ele>231</ele>
        <time>2012-04-06T14:38:56Z</time>
      </trkpt>
      <trkpt lat="47.10911" lon="5.44059">
        <ele>232</ele>
        <time>2012-04-06T14:39:01Z</time>
      </trkpt>
      <trkpt lat="47.10949" lon="5.43964">
        <ele>232</ele>
        <time>2012-04-06T14:39:14Z</time>
      </trkpt>
      <trkpt lat="47.10967" lon="5.4392">
        <ele>232</ele>
        <time>2012-04-06T14:39:28Z</time>
      </trkpt>
      <trkpt lat="47.10989" lon="5.43843">
        <ele>229</ele>
        <time>2012-04-06T14:39:40Z</time>
      </trkpt>
      <trkpt lat="47.11006" lon="5.43782">
        <ele>226</ele>
        <time>2012-04-06T14:39:48Z</time>
      </trkpt>
      <trkpt lat="47.11011" lon="5.43767">
        <ele>225</ele>
        <time>2012-04-06T14:39:58Z</time>
      </trkpt>
      <trkpt lat="47.11014" lon="5.43762">
        <ele>225</ele>
        <time>2012-04-06T14:40:04Z</time>
      </trkpt>
      <trkpt lat="47.11024" lon="5.43763">
        <ele>226</ele>
        <time>2012-04-06T14:40:08Z</time>
      </trkpt>
      <trkpt lat="47.11096" lon="5.43836">
        <ele>226</ele>
        <time>2012-04-06T14:40:26Z</time>
      </trkpt>
      <trkpt lat="47.11182" lon="5.43935">
        <ele>224</ele>
        <time>2012-04-06T14:40:45Z</time>
      </trkpt>
      <trkpt lat="47.11272" lon="5.44004">
        <ele>227</ele>
        <time>2012-04-06T14:41:03Z</time>
      </trkpt>
      <trkpt lat="47.11396" lon="5.44103">
        <ele>228</ele>
        <time>2012-04-06T14:41:29Z</time>
      </trkpt>
      <trkpt lat="47.11475" lon="5.44184">
        <ele>225</ele>
        <time>2012-04-06T14:41:43Z</time>
      </trkpt>
      <trkpt lat="47.11582" lon="5.44294">
        <ele>222</ele>
        <time>2012-04-06T14:42:02Z</time>
      </trkpt>
      <trkpt lat="47.11684" lon="5.4437">
        <ele>223</ele>
        <time>2012-04-06T14:42:21Z</time>
      </trkpt>
      <trkpt lat="47.11786" lon="5.44445">
        <ele>225</ele>
        <time>2012-04-06T14:42:44Z</time>
      </trkpt>
      <trkpt lat="47.11897" lon="5.44559">
        <ele>224</ele>
        <time>2012-04-06T14:43:08Z</time>
      </trkpt>
      <trkpt lat="47.11977" lon="5.44643">
        <ele>225</ele>
        <time>2012-04-06T14:43:26Z</time>
      </trkpt>
      <trkpt lat="47.12063" lon="5.44742">
        <ele>227</ele>
        <time>2012-04-06T14:43:47Z</time>
      </trkpt>
      <trkpt lat="47.12167" lon="5.44868">
        <ele>228</ele>
        <time>2012-04-06T14:44:12Z</time>
      </trkpt>
      <trkpt lat="47.12267" lon="5.44953">
        <ele>228</ele>
        <time>2012-04-06T14:44:34Z</time>
      </trkpt>
      <trkpt lat="47.1238" lon="5.45042">
        <ele>226</ele>
        <time>2012-04-06T14:44:55Z</time>
      </trkpt>
      <trkpt lat="47.12419" lon="5.45069">
        <ele>225</ele>
        <time>2012-04-06T14:45:02Z</time>
      </trkpt>
      <trkpt lat="47.12445" lon="5.45074">
        <ele>225</ele>
        <time>2012-04-06T14:45:06Z</time>
      </trkpt>
      <trkpt lat="47.12471" lon="5.45068">
        <ele>223</ele>
        <time>2012-04-06T14:45:10Z</time>
      </trkpt>
      <trkpt lat="47.12484" lon="5.45061">
        <ele>223</ele>
        <time>2012-04-06T14:45:12Z</time>
      </trkpt>
      <trkpt lat="47.12529" lon="5.45028">
        <ele>220</ele>
        <time>2012-04-06T14:45:19Z</time>
      </trkpt>
      <trkpt lat="47.12561" lon="5.45003">
        <ele>219</ele>
        <time>2012-04-06T14:45:26Z</time>
      </trkpt>
      <trkpt lat="47.12577" lon="5.44995">
        <ele>218</ele>
        <time>2012-04-06T14:45:30Z</time>
      </trkpt>
      <trkpt lat="47.12582" lon="5.4502">
        <ele>217</ele>
        <time>2012-04-06T14:45:35Z</time>
      </trkpt>
      <trkpt lat="47.12552" lon="5.4514">
        <ele>220</ele>
        <time>2012-04-06T14:45:53Z</time>
      </trkpt>
      <trkpt lat="47.12517" lon="5.45255">
        <ele>223</ele>
        <time>2012-04-06T14:46:11Z</time>
      </trkpt>
      <trkpt lat="47.1251" lon="5.45287">
        <ele>225</ele>
        <time>2012-04-06T14:46:17Z</time>
      </trkpt>
      <trkpt lat="47.12535" lon="5.45332">
        <ele>227</ele>
        <time>2012-04-06T14:46:28Z</time>
      </trkpt>
      <trkpt lat="47.12552" lon="5.45355">
        <ele>228</ele>
        <time>2012-04-06T14:46:34Z</time>
      </trkpt>
      <trkpt lat="47.1256" lon="5.45369">
        <ele>227</ele>
        <time>2012-04-06T14:46:37Z</time>
      </trkpt>
      <trkpt lat="47.12569" lon="5.45395">
        <ele>227</ele>
        <time>2012-04-06T14:46:41Z</time>
      </trkpt>
      <trkpt lat="47.12572" lon="5.45443">
        <ele>226</ele>
        <time>2012-04-06T14:46:47Z</time>
      </trkpt>
      <trkpt lat="47.12584" lon="5.45481">
        <ele>226</ele>
        <time>2012-04-06T14:46:52Z</time>
      </trkpt>
      <trkpt lat="47.12594" lon="5.45496">
        <ele>226</ele>
        <time>2012-04-06T14:46:55Z</time>
      </trkpt>
      <trkpt lat="47.12601" lon="5.45539">
        <ele>227</ele>
        <time>2012-04-06T14:47:01Z</time>
      </trkpt>
      <trkpt lat="47.1258" lon="5.45628">
        <ele>229</ele>
        <time>2012-04-06T14:47:16Z</time>
      </trkpt>
      <trkpt lat="47.12567" lon="5.45664">
        <ele>230</ele>
        <time>2012-04-06T14:47:22Z</time>
      </trkpt>
      <trkpt lat="47.12544" lon="5.45707">
        <ele>234</ele>
        <time>2012-04-06T14:47:33Z</time>
      </trkpt>
      <trkpt lat="47.12513" lon="5.45754">
        <ele>236</ele>
        <time>2012-04-06T14:47:48Z</time>
      </trkpt>
      <trkpt lat="47.12504" lon="5.4577">
        <ele>236</ele>
        <time>2012-04-06T14:47:55Z</time>
      </trkpt>
      <trkpt lat="47.12499" lon="5.45782">
        <ele>236</ele>
        <time>2012-04-06T14:48:09Z</time>
      </trkpt>
      <trkpt lat="47.1252" lon="5.45791">
        <ele>236</ele>
        <time>2012-04-06T14:48:19Z</time>
      </trkpt>
      <trkpt lat="47.12524" lon="5.45787">
        <ele>236</ele>
        <time>2012-04-06T14:48:20Z</time>
      </trkpt>
      <trkpt lat="47.12586" lon="5.45739">
        <ele>231</ele>
        <time>2012-04-06T14:48:32Z</time>
      </trkpt>
      <trkpt lat="47.12597" lon="5.45731">
        <ele>230</ele>
        <time>2012-04-06T14:48:34Z</time>
      </trkpt>
      <trkpt lat="47.1263" lon="5.45708">
        <ele>228</ele>
        <time>2012-04-06T14:48:40Z</time>
      </trkpt>
      <trkpt lat="47.12645" lon="5.45694">
        <ele>227</ele>
        <time>2012-04-06T14:48:43Z</time>
      </trkpt>
      <trkpt lat="47.12667" lon="5.45693">
        <ele>227</ele>
        <time>2012-04-06T14:48:48Z</time>
      </trkpt>
      <trkpt lat="47.12757" lon="5.45736">
        <ele>227</ele>
        <time>2012-04-06T14:49:05Z</time>
      </trkpt>
      <trkpt lat="47.12848" lon="5.4572">
        <ele>225</ele>
        <time>2012-04-06T14:49:19Z</time>
      </trkpt>
      <trkpt lat="47.12909" lon="5.457">
        <ele>221</ele>
        <time>2012-04-06T14:49:26Z</time>
      </trkpt>
      <trkpt lat="47.12983" lon="5.45678">
        <ele>219</ele>
        <time>2012-04-06T14:49:34Z</time>
      </trkpt>
      <trkpt lat="47.13049" lon="5.4569">
        <ele>219</ele>
        <time>2012-04-06T14:49:42Z</time>
      </trkpt>
      <trkpt lat="47.13167" lon="5.45645">
        <ele>216</ele>
        <time>2012-04-06T14:49:58Z</time>
      </trkpt>
      <trkpt lat="47.13281" lon="5.45585">
        <ele>217</ele>
        <time>2012-04-06T14:50:16Z</time>
      </trkpt>
      <trkpt lat="47.13371" lon="5.45536">
        <ele>219</ele>
        <time>2012-04-06T14:50:35Z</time>
      </trkpt>
      <trkpt lat="47.13391" lon="5.45525">
        <ele>219</ele>
        <time>2012-04-06T14:50:42Z</time>
      </trkpt>
      <trkpt lat="47.134" lon="5.45539">
        <ele>219</ele>
        <time>2012-04-06T14:50:46Z</time>
      </trkpt>
      <trkpt lat="47.13427" lon="5.45665">
        <ele>218</ele>
        <time>2012-04-06T14:51:01Z</time>
      </trkpt>
      <trkpt lat="47.1347" lon="5.45867">
        <ele>215</ele>
        <time>2012-04-06T14:51:21Z</time>
      </trkpt>
      <trkpt lat="47.13505" lon="5.46029">
        <ele>215</ele>
        <time>2012-04-06T14:51:39Z</time>
      </trkpt>
      <trkpt lat="47.13551" lon="5.46238">
        <ele>216</ele>
        <time>2012-04-06T14:52:07Z</time>
      </trkpt>
      <trkpt lat="47.13584" lon="5.46385">
        <ele>216</ele>
        <time>2012-04-06T14:52:24Z</time>
      </trkpt>
      <trkpt lat="47.136" lon="5.46571">
        <ele>218</ele>
        <time>2012-04-06T14:52:44Z</time>
      </trkpt>
      <trkpt lat="47.13614" lon="5.46673">
        <ele>221</ele>
        <time>2012-04-06T14:52:59Z</time>
      </trkpt>
      <trkpt lat="47.13626" lon="5.46729">
        <ele>224</ele>
        <time>2012-04-06T14:53:08Z</time>
      </trkpt>
      <trkpt lat="47.13642" lon="5.46835">
        <ele>227</ele>
        <time>2012-04-06T14:53:25Z</time>
      </trkpt>
      <trkpt lat="47.13669" lon="5.46979">
        <ele>225</ele>
        <time>2012-04-06T14:53:44Z</time>
      </trkpt>
      <trkpt lat="47.13698" lon="5.47069">
        <ele>221</ele>
        <time>2012-04-06T14:53:52Z</time>
      </trkpt>
      <trkpt lat="47.13723" lon="5.47137">
        <ele>217</ele>
        <time>2012-04-06T14:53:57Z</time>
      </trkpt>
      <trkpt lat="47.13734" lon="5.47166">
        <ele>216</ele>
        <time>2012-04-06T14:53:59Z</time>
      </trkpt>
      <trkpt lat="47.13758" lon="5.47241">
        <ele>213</ele>
        <time>2012-04-06T14:54:04Z</time>
      </trkpt>
      <trkpt lat="47.13763" lon="5.47256">
        <ele>213</ele>
        <time>2012-04-06T14:54:05Z</time>
      </trkpt>
      <trkpt lat="47.13771" lon="5.47302">
        <ele>213</ele>
        <time>2012-04-06T14:54:08Z</time>
      </trkpt>
      <trkpt lat="47.13776" lon="5.47431">
        <ele>213</ele>
        <time>2012-04-06T14:54:19Z</time>
      </trkpt>
      <trkpt lat="47.13801" lon="5.47533">
        <ele>218</ele>
        <time>2012-04-06T14:54:33Z</time>
      </trkpt>
      <trkpt lat="47.13804" lon="5.4754">
        <ele>218</ele>
        <time>2012-04-06T14:54:34Z</time>
      </trkpt>
      <trkpt lat="47.13812" lon="5.47559">
        <ele>218</ele>
        <time>2012-04-06T14:54:37Z</time>
      </trkpt>
      <trkpt lat="47.1382" lon="5.47577">
        <ele>220</ele>
        <time>2012-04-06T14:54:40Z</time>
      </trkpt>
      <trkpt lat="47.13853" lon="5.47671">
        <ele>219</ele>
        <time>2012-04-06T14:54:55Z</time>
      </trkpt>
      <trkpt lat="47.13876" lon="5.47752">
        <ele>223</ele>
        <time>2012-04-06T14:55:08Z</time>
      </trkpt>
      <trkpt lat="47.13907" lon="5.47829">
        <ele>226</ele>
        <time>2012-04-06T14:55:22Z</time>
      </trkpt>
      <trkpt lat="47.13944" lon="5.4791">
        <ele>229</ele>
        <time>2012-04-06T14:55:38Z</time>
      </trkpt>
      <trkpt lat="47.14018" lon="5.4807">
        <ele>230</ele>
        <time>2012-04-06T14:56:05Z</time>
      </trkpt>
      <trkpt lat="47.14071" lon="5.4819">
        <ele>232</ele>
        <time>2012-04-06T14:56:28Z</time>
      </trkpt>
      <trkpt lat="47.14092" lon="5.48274">
        <ele>234</ele>
        <time>2012-04-06T14:56:43Z</time>
      </trkpt>
      <trkpt lat="47.1411" lon="5.4841">
        <ele>236</ele>
        <time>2012-04-06T14:57:04Z</time>
      </trkpt>
      <trkpt lat="47.14102" lon="5.48487">
        <ele>237</ele>
        <time>2012-04-06T14:57:16Z</time>
      </trkpt>
      <trkpt lat="47.141" lon="5.48511">
        <ele>237</ele>
        <time>2012-04-06T14:57:20Z</time>
      </trkpt>
      <trkpt lat="47.14101" lon="5.48572">
        <ele>239</ele>
        <time>2012-04-06T14:57:30Z</time>
      </trkpt>
      <trkpt lat="47.14116" lon="5.4858">
        <ele>239</ele>
        <time>2012-04-06T14:57:34Z</time>
      </trkpt>
      <trkpt lat="47.14172" lon="5.4863">
        <ele>241</ele>
        <time>2012-04-06T14:57:50Z</time>
      </trkpt>
      <trkpt lat="47.14214" lon="5.48687">
        <ele>244</ele>
        <time>2012-04-06T14:58:04Z</time>
      </trkpt>
      <trkpt lat="47.14258" lon="5.48705">
        <ele>245</ele>
        <time>2012-04-06T14:58:16Z</time>
      </trkpt>
      <trkpt lat="47.14333" lon="5.4865">
        <ele>249</ele>
        <time>2012-04-06T14:58:36Z</time>
      </trkpt>
      <trkpt lat="47.14374" lon="5.4863">
        <ele>252</ele>
        <time>2012-04-06T14:58:49Z</time>
      </trkpt>
      <trkpt lat="47.14398" lon="5.48603">
        <ele>252</ele>
        <time>2012-04-06T14:58:59Z</time>
      </trkpt>
      <trkpt lat="47.14438" lon="5.48559">
        <ele>252</ele>
        <time>2012-04-06T14:59:17Z</time>
      </trkpt>
      <trkpt lat="47.14499" lon="5.48497">
        <ele>253</ele>
        <time>2012-04-06T14:59:37Z</time>
      </trkpt>
      <trkpt lat="47.14638" lon="5.48357">
        <ele>253</ele>
        <time>2012-04-06T15:00:13Z</time>
      </trkpt>
      <trkpt lat="47.1475" lon="5.48249">
        <ele>252</ele>
        <time>2012-04-06T15:00:38Z</time>
      </trkpt>
      <trkpt lat="47.14759" lon="5.48243">
        <ele>252</ele>
        <time>2012-04-06T15:00:40Z</time>
      </trkpt>
      <trkpt lat="47.14791" lon="5.48235">
        <ele>252</ele>
        <time>2012-04-06T15:00:46Z</time>
      </trkpt>
      <trkpt lat="47.14806" lon="5.48236">
        <ele>251</ele>
        <time>2012-04-06T15:00:49Z</time>
      </trkpt>
      <trkpt lat="47.14909" lon="5.48294">
        <ele>251</ele>
        <time>2012-04-06T15:01:10Z</time>
      </trkpt>
      <trkpt lat="47.15055" lon="5.48389">
        <ele>247</ele>
        <time>2012-04-06T15:01:37Z</time>
      </trkpt>
      <trkpt lat="47.1519" lon="5.48475">
        <ele>247</ele>
        <time>2012-04-06T15:02:03Z</time>
      </trkpt>
      <trkpt lat="47.15322" lon="5.48561">
        <ele>248</ele>
        <time>2012-04-06T15:02:32Z</time>
      </trkpt>
      <trkpt lat="47.1534" lon="5.48568">
        <ele>249</ele>
        <time>2012-04-06T15:02:41Z</time>
      </trkpt>
      <trkpt lat="47.15377" lon="5.4852">
        <ele>246</ele>
        <time>2012-04-06T15:02:54Z</time>
      </trkpt>
      <trkpt lat="47.15397" lon="5.48489">
        <ele>246</ele>
        <time>2012-04-06T15:03:00Z</time>
      </trkpt>
      <trkpt lat="47.15407" lon="5.48466">
        <ele>246</ele>
        <time>2012-04-06T15:03:04Z</time>
      </trkpt>
      <trkpt lat="47.15435" lon="5.48378">
        <ele>250</ele>
        <time>2012-04-06T15:03:20Z</time>
      </trkpt>
      <trkpt lat="47.15449" lon="5.48347">
        <ele>250</ele>
        <time>2012-04-06T15:03:33Z</time>
      </trkpt>
      <trkpt lat="47.1545" lon="5.48345">
        <ele>250</ele>
        <time>2012-04-06T15:03:55Z</time>
      </trkpt>
      <trkpt lat="47.15451" lon="5.48338">
        <ele>250</ele>
        <time>2012-04-06T15:04:00Z</time>
      </trkpt>
      <trkpt lat="47.15451" lon="5.48332">
        <ele>251</ele>
        <time>2012-04-06T15:04:02Z</time>
      </trkpt>
      <trkpt lat="47.15454" lon="5.48295">
        <ele>252</ele>
        <time>2012-04-06T15:04:10Z</time>
      </trkpt>
      <trkpt lat="47.15455" lon="5.48283">
        <ele>252</ele>
        <time>2012-04-06T15:04:12Z</time>
      </trkpt>
      <trkpt lat="47.15456" lon="5.48255">
        <ele>253</ele>
        <time>2012-04-06T15:04:16Z</time>
      </trkpt>
      <trkpt lat="47.1546" lon="5.4821">
        <ele>254</ele>
        <time>2012-04-06T15:04:22Z</time>
      </trkpt>
      <trkpt lat="47.15459" lon="5.48173">
        <ele>255</ele>
        <time>2012-04-06T15:04:28Z</time>
      </trkpt>
      <trkpt lat="47.15449" lon="5.48135">
        <ele>257</ele>
        <time>2012-04-06T15:04:35Z</time>
      </trkpt>
      <trkpt lat="47.15446" lon="5.48063">
        <ele>257</ele>
        <time>2012-04-06T15:04:46Z</time>
      </trkpt>
      <trkpt lat="47.15453" lon="5.48025">
        <ele>257</ele>
        <time>2012-04-06T15:04:51Z</time>
      </trkpt>
      <trkpt lat="47.15479" lon="5.47967">
        <ele>258</ele>
        <time>2012-04-06T15:05:00Z</time>
      </trkpt>
      <trkpt lat="47.15509" lon="5.47858">
        <ele>256</ele>
        <time>2012-04-06T15:05:14Z</time>
      </trkpt>
      <trkpt lat="47.15514" lon="5.47837">
        <ele>255</ele>
        <time>2012-04-06T15:05:16Z</time>
      </trkpt>
      <trkpt lat="47.15529" lon="5.47752">
        <ele>252</ele>
        <time>2012-04-06T15:05:23Z</time>
      </trkpt>
      <trkpt lat="47.1553" lon="5.47742">
        <ele>251</ele>
        <time>2012-04-06T15:05:24Z</time>
      </trkpt>
      <trkpt lat="47.15552" lon="5.47711">
        <ele>251</ele>
        <time>2012-04-06T15:05:29Z</time>
      </trkpt>
      <trkpt lat="47.15663" lon="5.47706">
        <ele>252</ele>
        <time>2012-04-06T15:05:46Z</time>
      </trkpt>
      <trkpt lat="47.15689" lon="5.47714">
        <ele>252</ele>
        <time>2012-04-06T15:05:50Z</time>
      </trkpt>
      <trkpt lat="47.15804" lon="5.47738">
        <ele>253</ele>
        <time>2012-04-06T15:06:10Z</time>
      </trkpt>
      <trkpt lat="47.15895" lon="5.47771">
        <ele>252</ele>
        <time>2012-04-06T15:06:26Z</time>
      </trkpt>
      <trkpt lat="47.15934" lon="5.47788">
        <ele>251</ele>
        <time>2012-04-06T15:06:33Z</time>
      </trkpt>
      <trkpt lat="47.1597" lon="5.47777">
        <ele>250</ele>
        <time>2012-04-06T15:06:38Z</time>
      </trkpt>
      <trkpt lat="47.16008" lon="5.47742">
        <ele>247</ele>
        <time>2012-04-06T15:06:43Z</time>
      </trkpt>
      <trkpt lat="47.16026" lon="5.47727">
        <ele>246</ele>
        <time>2012-04-06T15:06:45Z</time>
      </trkpt>
      <trkpt lat="47.16044" lon="5.47712">
        <ele>245</ele>
        <time>2012-04-06T15:06:47Z</time>
      </trkpt>
      <trkpt lat="47.16061" lon="5.47693">
        <ele>244</ele>
        <time>2012-04-06T15:06:49Z</time>
      </trkpt>
      <trkpt lat="47.16091" lon="5.47644">
        <ele>241</ele>
        <time>2012-04-06T15:06:53Z</time>
      </trkpt>
      <trkpt lat="47.16143" lon="5.47598">
        <ele>240</ele>
        <time>2012-04-06T15:06:59Z</time>
      </trkpt>
      <trkpt lat="47.16231" lon="5.47571">
        <ele>242</ele>
        <time>2012-04-06T15:07:13Z</time>
      </trkpt>
      <trkpt lat="47.16247" lon="5.47569">
        <ele>243</ele>
        <time>2012-04-06T15:07:16Z</time>
      </trkpt>
      <trkpt lat="47.16267" lon="5.47571">
        <ele>244</ele>
        <time>2012-04-06T15:07:20Z</time>
      </trkpt>
      <trkpt lat="47.16341" lon="5.47611">
        <ele>247</ele>
        <time>2012-04-06T15:07:36Z</time>
      </trkpt>
      <trkpt lat="47.16396" lon="5.47602">
        <ele>249</ele>
        <time>2012-04-06T15:07:50Z</time>
      </trkpt>
      <trkpt lat="47.16459" lon="5.47551">
        <ele>252</ele>
        <time>2012-04-06T15:08:08Z</time>
      </trkpt>
      <trkpt lat="47.16495" lon="5.47522">
        <ele>256</ele>
        <time>2012-04-06T15:08:20Z</time>
      </trkpt>
      <trkpt lat="47.16554" lon="5.47497">
        <ele>258</ele>
        <time>2012-04-06T15:08:39Z</time>
      </trkpt>
      <trkpt lat="47.166" lon="5.47502">
        <ele>258</ele>
        <time>2012-04-06T15:08:54Z</time>
      </trkpt>
      <trkpt lat="47.16674" lon="5.47518">
        <ele>256</ele>
        <time>2012-04-06T15:09:10Z</time>
      </trkpt>
      <trkpt lat="47.16745" lon="5.47542">
        <ele>252</ele>
        <time>2012-04-06T15:09:22Z</time>
      </trkpt>
      <trkpt lat="47.16797" lon="5.47562">
        <ele>249</ele>
        <time>2012-04-06T15:09:28Z</time>
      </trkpt>
      <trkpt lat="47.16845" lon="5.47583">
        <ele>246</ele>
        <time>2012-04-06T15:09:33Z</time>
      </trkpt>
      <trkpt lat="47.16855" lon="5.47587">
        <ele>245</ele>
        <time>2012-04-06T15:09:34Z</time>
      </trkpt>
      <trkpt lat="47.1693" lon="5.47621">
        <ele>242</ele>
        <time>2012-04-06T15:09:42Z</time>
      </trkpt>
      <trkpt lat="47.16949" lon="5.4763">
        <ele>241</ele>
        <time>2012-04-06T15:09:44Z</time>
      </trkpt>
      <trkpt lat="47.16985" lon="5.47645">
        <ele>240</ele>
        <time>2012-04-06T15:09:48Z</time>
      </trkpt>
      <trkpt lat="47.17054" lon="5.47662">
        <ele>236</ele>
        <time>2012-04-06T15:09:55Z</time>
      </trkpt>
      <trkpt lat="47.17064" lon="5.47664">
        <ele>236</ele>
        <time>2012-04-06T15:09:56Z</time>
      </trkpt>
      <trkpt lat="47.17128" lon="5.47674">
        <ele>233</ele>
        <time>2012-04-06T15:10:02Z</time>
      </trkpt>
      <trkpt lat="47.17222" lon="5.47691">
        <ele>229</ele>
        <time>2012-04-06T15:10:12Z</time>
      </trkpt>
      <trkpt lat="47.17238" lon="5.47694">
        <ele>229</ele>
        <time>2012-04-06T15:10:14Z</time>
      </trkpt>
      <trkpt lat="47.17268" lon="5.47698">
        <ele>229</ele>
        <time>2012-04-06T15:10:18Z</time>
      </trkpt>
      <trkpt lat="47.17321" lon="5.4766">
        <ele>227</ele>
        <time>2012-04-06T15:10:27Z</time>
      </trkpt>
      <trkpt lat="47.17325" lon="5.47653">
        <ele>227</ele>
        <time>2012-04-06T15:10:28Z</time>
      </trkpt>
      <trkpt lat="47.17386" lon="5.47496">
        <ele>225</ele>
        <time>2012-04-06T15:10:47Z</time>
      </trkpt>
      <trkpt lat="47.17445" lon="5.47428">
        <ele>222</ele>
        <time>2012-04-06T15:10:57Z</time>
      </trkpt>
      <trkpt lat="47.17491" lon="5.47443">
        <ele>220</ele>
        <time>2012-04-06T15:11:03Z</time>
      </trkpt>
      <trkpt lat="47.17496" lon="5.47452">
        <ele>220</ele>
        <time>2012-04-06T15:11:04Z</time>
      </trkpt>
      <trkpt lat="47.17534" lon="5.47538">
        <ele>218</ele>
        <time>2012-04-06T15:11:13Z</time>
      </trkpt>
      <trkpt lat="47.17544" lon="5.47553">
        <ele>217</ele>
        <time>2012-04-06T15:11:15Z</time>
      </trkpt>
      <trkpt lat="47.17569" lon="5.47567">
        <ele>215</ele>
        <time>2012-04-06T15:11:20Z</time>
      </trkpt>
      <trkpt lat="47.17584" lon="5.47566">
        <ele>214</ele>
        <time>2012-04-06T15:11:26Z</time>
      </trkpt>
      <trkpt lat="47.17596" lon="5.4754">
        <ele>214</ele>
        <time>2012-04-06T15:11:32Z</time>
      </trkpt>
      <trkpt lat="47.17639" lon="5.47456">
        <ele>211</ele>
        <time>2012-04-06T15:11:43Z</time>
      </trkpt>
      <trkpt lat="47.17652" lon="5.4743">
        <ele>210</ele>
        <time>2012-04-06T15:11:46Z</time>
      </trkpt>
      <trkpt lat="47.17661" lon="5.47385">
        <ele>209</ele>
        <time>2012-04-06T15:11:51Z</time>
      </trkpt>
      <trkpt lat="47.17662" lon="5.47376">
        <ele>208</ele>
        <time>2012-04-06T15:11:52Z</time>
      </trkpt>
      <trkpt lat="47.17684" lon="5.47335">
        <ele>208</ele>
        <time>2012-04-06T15:11:58Z</time>
      </trkpt>
      <trkpt lat="47.17778" lon="5.47236">
        <ele>207</ele>
        <time>2012-04-06T15:12:16Z</time>
      </trkpt>
      <trkpt lat="47.17794" lon="5.4721">
        <ele>206</ele>
        <time>2012-04-06T15:12:20Z</time>
      </trkpt>
      <trkpt lat="47.17807" lon="5.47171">
        <ele>206</ele>
        <time>2012-04-06T15:12:25Z</time>
      </trkpt>
      <trkpt lat="47.1783" lon="5.47028">
        <ele>208</ele>
        <time>2012-04-06T15:12:44Z</time>
      </trkpt>
      <trkpt lat="47.17832" lon="5.46904">
        <ele>207</ele>
        <time>2012-04-06T15:13:00Z</time>
      </trkpt>
      <trkpt lat="47.17833" lon="5.46816">
        <ele>204</ele>
        <time>2012-04-06T15:13:09Z</time>
      </trkpt>
      <trkpt lat="47.17843" lon="5.46762">
        <ele>203</ele>
        <time>2012-04-06T15:13:14Z</time>
      </trkpt>
      <trkpt lat="47.17869" lon="5.4665">
        <ele>201</ele>
        <time>2012-04-06T15:13:24Z</time>
      </trkpt>
      <trkpt lat="47.1789" lon="5.46603">
        <ele>201</ele>
        <time>2012-04-06T15:13:29Z</time>
      </trkpt>
      <trkpt lat="47.17943" lon="5.46485">
        <ele>200</ele>
        <time>2012-04-06T15:13:43Z</time>
      </trkpt>
      <trkpt lat="47.17971" lon="5.46333">
        <ele>200</ele>
        <time>2012-04-06T15:14:00Z</time>
      </trkpt>
      <trkpt lat="47.17959" lon="5.46204">
        <ele>201</ele>
        <time>2012-04-06T15:14:15Z</time>
      </trkpt>
      <trkpt lat="47.17995" lon="5.46079">
        <ele>202</ele>
        <time>2012-04-06T15:14:32Z</time>
      </trkpt>
      <trkpt lat="47.18025" lon="5.45925">
        <ele>204</ele>
        <time>2012-04-06T15:14:54Z</time>
      </trkpt>
      <trkpt lat="47.18031" lon="5.45899">
        <ele>203</ele>
        <time>2012-04-06T15:14:57Z</time>
      </trkpt>
      <trkpt lat="47.18044" lon="5.45843">
        <ele>202</ele>
        <time>2012-04-06T15:15:03Z</time>
      </trkpt>
      <trkpt lat="47.18052" lon="5.45818">
        <ele>202</ele>
        <time>2012-04-06T15:15:06Z</time>
      </trkpt>
      <trkpt lat="47.18102" lon="5.45704">
        <ele>202</ele>
        <time>2012-04-06T15:15:21Z</time>
      </trkpt>
      <trkpt lat="47.18138" lon="5.45616">
        <ele>205</ele>
        <time>2012-04-06T15:15:35Z</time>
      </trkpt>
      <trkpt lat="47.18151" lon="5.45581">
        <ele>206</ele>
        <time>2012-04-06T15:15:41Z</time>
      </trkpt>
      <trkpt lat="47.18179" lon="5.45452">
        <ele>208</ele>
        <time>2012-04-06T15:15:59Z</time>
      </trkpt>
      <trkpt lat="47.18211" lon="5.4528">
        <ele>207</ele>
        <time>2012-04-06T15:16:20Z</time>
      </trkpt>
      <trkpt lat="47.18232" lon="5.45171">
        <ele>208</ele>
        <time>2012-04-06T15:16:33Z</time>
      </trkpt>
      <trkpt lat="47.18258" lon="5.45028">
        <ele>207</ele>
        <time>2012-04-06T15:16:50Z</time>
      </trkpt>
      <trkpt lat="47.18282" lon="5.44896">
        <ele>207</ele>
        <time>2012-04-06T15:17:06Z</time>
      </trkpt>
      <trkpt lat="47.18307" lon="5.44753">
        <ele>207</ele>
        <time>2012-04-06T15:17:23Z</time>
      </trkpt>
      <trkpt lat="47.18328" lon="5.4462">
        <ele>207</ele>
        <time>2012-04-06T15:17:39Z</time>
      </trkpt>
      <trkpt lat="47.18358" lon="5.44402">
        <ele>203</ele>
        <time>2012-04-06T15:18:02Z</time>
      </trkpt>
      <trkpt lat="47.1837" lon="5.44323">
        <ele>201</ele>
        <time>2012-04-06T15:18:08Z</time>
      </trkpt>
      <trkpt lat="47.18391" lon="5.4416">
        <ele>200</ele>
        <time>2012-04-06T15:18:22Z</time>
      </trkpt>
      <trkpt lat="47.18416" lon="5.43988">
        <ele>202</ele>
        <time>2012-04-06T15:18:41Z</time>
      </trkpt>
      <trkpt lat="47.18427" lon="5.43901">
        <ele>205</ele>
        <time>2012-04-06T15:18:53Z</time>
      </trkpt>
      <trkpt lat="47.18453" lon="5.43758">
        <ele>207</ele>
        <time>2012-04-06T15:19:11Z</time>
      </trkpt>
      <trkpt lat="47.1851" lon="5.43597">
        <ele>207</ele>
        <time>2012-04-06T15:19:32Z</time>
      </trkpt>
      <trkpt lat="47.18584" lon="5.43392">
        <ele>205</ele>
        <time>2012-04-06T15:19:56Z</time>
      </trkpt>
      <trkpt lat="47.18646" lon="5.43223">
        <ele>205</ele>
        <time>2012-04-06T15:20:16Z</time>
      </trkpt>
      <trkpt lat="47.18713" lon="5.43038">
        <ele>207</ele>
        <time>2012-04-06T15:20:41Z</time>
      </trkpt>
      <trkpt lat="47.1874" lon="5.4296">
        <ele>207</ele>
        <time>2012-04-06T15:20:51Z</time>
      </trkpt>
      <trkpt lat="47.18756" lon="5.42841">
        <ele>207</ele>
        <time>2012-04-06T15:21:05Z</time>
      </trkpt>
      <trkpt lat="47.1879" lon="5.42626">
        <ele>205</ele>
        <time>2012-04-06T15:21:29Z</time>
      </trkpt>
      <trkpt lat="47.18811" lon="5.42494">
        <ele>202</ele>
        <time>2012-04-06T15:21:42Z</time>
      </trkpt>
      <trkpt lat="47.18826" lon="5.42392">
        <ele>199</ele>
        <time>2012-04-06T15:21:51Z</time>
      </trkpt>
      <trkpt lat="47.18853" lon="5.4226">
        <ele>195</ele>
        <time>2012-04-06T15:22:02Z</time>
      </trkpt>
      <trkpt lat="47.18876" lon="5.42173">
        <ele>192</ele>
        <time>2012-04-06T15:22:09Z</time>
      </trkpt>
      <trkpt lat="47.1891" lon="5.42038">
        <ele>189</ele>
        <time>2012-04-06T15:22:20Z</time>
      </trkpt>
      <trkpt lat="47.18965" lon="5.41823">
        <ele>187</ele>
        <time>2012-04-06T15:22:40Z</time>
      </trkpt>
      <trkpt lat="47.18996" lon="5.41698">
        <ele>187</ele>
        <time>2012-04-06T15:22:55Z</time>
      </trkpt>
      <trkpt lat="47.19018" lon="5.41619">
        <ele>186</ele>
        <time>2012-04-06T15:23:07Z</time>
      </trkpt>
      <trkpt lat="47.19042" lon="5.41527">
        <ele>186</ele>
        <time>2012-04-06T15:23:23Z</time>
      </trkpt>
      <trkpt lat="47.19062" lon="5.41442">
        <ele>185</ele>
        <time>2012-04-06T15:23:36Z</time>
      </trkpt>
      <trkpt lat="47.19087" lon="5.41348">
        <ele>186</ele>
        <time>2012-04-06T15:23:54Z</time>
      </trkpt>
      <trkpt lat="47.19094" lon="5.41279">
        <ele>186</ele>
        <time>2012-04-06T15:24:05Z</time>
      </trkpt>
      <trkpt lat="47.19096" lon="5.4124">
        <ele>186</ele>
        <time>2012-04-06T15:24:11Z</time>
      </trkpt>
      <trkpt lat="47.19105" lon="5.41139">
        <ele>186</ele>
        <time>2012-04-06T15:24:26Z</time>
      </trkpt>
      <trkpt lat="47.1911" lon="5.41051">
        <ele>186</ele>
        <time>2012-04-06T15:24:41Z</time>
      </trkpt>
      <trkpt lat="47.19133" lon="5.40942">
        <ele>186</ele>
        <time>2012-04-06T15:25:00Z</time>
      </trkpt>
      <trkpt lat="47.19147" lon="5.40913">
        <ele>186</ele>
        <time>2012-04-06T15:25:11Z</time>
      </trkpt>
      <trkpt lat="47.19164" lon="5.40868">
        <ele>186</ele>
        <time>2012-04-06T15:25:22Z</time>
      </trkpt>
      <trkpt lat="47.19189" lon="5.40807">
        <ele>185</ele>
        <time>2012-04-06T15:25:36Z</time>
      </trkpt>
      <trkpt lat="47.19225" lon="5.40719">
        <ele>185</ele>
        <time>2012-04-06T15:25:54Z</time>
      </trkpt>
      <trkpt lat="47.19253" lon="5.40651">
        <ele>185</ele>
        <time>2012-04-06T15:26:10Z</time>
      </trkpt>
      <trkpt lat="47.19258" lon="5.40637">
        <ele>185</ele>
        <time>2012-04-06T15:26:13Z</time>
      </trkpt>
      <trkpt lat="47.19297" lon="5.40543">
        <ele>186</ele>
        <time>2012-04-06T15:26:31Z</time>
      </trkpt>
      <trkpt lat="47.19334" lon="5.40424">
        <ele>188</ele>
        <time>2012-04-06T15:26:49Z</time>
      </trkpt>
      <trkpt lat="47.19349" lon="5.40245">
        <ele>189</ele>
        <time>2012-04-06T15:27:13Z</time>
      </trkpt>
      <trkpt lat="47.19353" lon="5.40143">
        <ele>187</ele>
        <time>2012-04-06T15:27:29Z</time>
      </trkpt>
      <trkpt lat="47.19352" lon="5.40138">
        <ele>187</ele>
        <time>2012-04-06T15:27:31Z</time>
      </trkpt>
      <trkpt lat="47.1935" lon="5.40146">
        <ele>187</ele>
        <time>2012-04-06T15:27:35Z</time>
      </trkpt>
      <trkpt lat="47.19349" lon="5.40192">
        <ele>187</ele>
        <time>2012-04-06T15:27:46Z</time>
      </trkpt>
      <trkpt lat="47.19348" lon="5.40222">
        <ele>187</ele>
        <time>2012-04-06T15:27:56Z</time>
      </trkpt>
      <trkpt lat="47.19352" lon="5.40217">
        <ele>188</ele>
        <time>2012-04-06T15:28:00Z</time>
      </trkpt>
      <trkpt lat="47.19353" lon="5.40193">
        <ele>187</ele>
        <time>2012-04-06T15:28:11Z</time>
      </trkpt>
      <trkpt lat="47.19352" lon="5.40191">
        <ele>187</ele>
        <time>2012-04-06T15:28:40Z</time>
      </trkpt>
      <trkpt lat="47.19351" lon="5.40188">
        <ele>187</ele>
        <time>2012-04-06T15:28:42Z</time>
      </trkpt>
      <trkpt lat="47.19354" lon="5.40123">
        <ele>188</ele>
        <time>2012-04-06T15:28:59Z</time>
      </trkpt>
      <trkpt lat="47.19366" lon="5.40036">
        <ele>188</ele>
        <time>2012-04-06T15:29:12Z</time>
      </trkpt>
      <trkpt lat="47.19364" lon="5.39918">
        <ele>187</ele>
        <time>2012-04-06T15:29:28Z</time>
      </trkpt>
      <trkpt lat="47.19364" lon="5.39769">
        <ele>187</ele>
        <time>2012-04-06T15:29:47Z</time>
      </trkpt>
      <trkpt lat="47.19382" lon="5.39625">
        <ele>186</ele>
        <time>2012-04-06T15:30:05Z</time>
      </trkpt>
      <trkpt lat="47.19383" lon="5.39487">
        <ele>186</ele>
        <time>2012-04-06T15:30:23Z</time>
      </trkpt>
      <trkpt lat="47.19374" lon="5.39355">
        <ele>187</ele>
        <time>2012-04-06T15:30:40Z</time>
      </trkpt>
      <trkpt lat="47.19384" lon="5.39235">
        <ele>187</ele>
        <time>2012-04-06T15:30:55Z</time>
      </trkpt>
      <trkpt lat="47.19405" lon="5.39083">
        <ele>188</ele>
        <time>2012-04-06T15:31:16Z</time>
      </trkpt>
      <trkpt lat="47.19426" lon="5.3904">
        <ele>188</ele>
        <time>2012-04-06T15:31:26Z</time>
      </trkpt>
      <trkpt lat="47.19476" lon="5.39063">
        <ele>188</ele>
        <time>2012-04-06T15:31:38Z</time>
      </trkpt>
      <trkpt lat="47.19503" lon="5.39055">
        <ele>189</ele>
        <time>2012-04-06T15:31:44Z</time>
      </trkpt>
      <trkpt lat="47.1953" lon="5.38984">
        <ele>190</ele>
        <time>2012-04-06T15:31:55Z</time>
      </trkpt>
      <trkpt lat="47.1954" lon="5.38979">
        <ele>188</ele>
        <time>2012-04-06T15:31:58Z</time>
      </trkpt>
      <trkpt lat="47.19553" lon="5.38969">
        <ele>188</ele>
        <time>2012-04-06T15:32:02Z</time>
      </trkpt>
      <trkpt lat="47.19548" lon="5.38943">
        <ele>188</ele>
        <time>2012-04-06T15:32:07Z</time>
      </trkpt>
      <trkpt lat="47.19541" lon="5.38935">
        <ele>188</ele>
        <time>2012-04-06T15:32:09Z</time>
      </trkpt>
      <trkpt lat="47.19532" lon="5.38922">
        <ele>188</ele>
        <time>2012-04-06T15:32:12Z</time>
      </trkpt>
      <trkpt lat="47.19476" lon="5.38884">
        <ele>188</ele>
        <time>2012-04-06T15:32:26Z</time>
      </trkpt>
      <trkpt lat="47.19461" lon="5.38868">
        <ele>188</ele>
        <time>2012-04-06T15:32:30Z</time>
      </trkpt>
      <trkpt lat="47.19444" lon="5.38847">
        <ele>188</ele>
        <time>2012-04-06T15:32:34Z</time>
      </trkpt>
      <trkpt lat="47.19432" lon="5.38822">
        <ele>188</ele>
        <time>2012-04-06T15:32:39Z</time>
      </trkpt>
      <trkpt lat="47.19478" lon="5.38707">
        <ele>185</ele>
        <time>2012-04-06T15:32:58Z</time>
      </trkpt>
      <trkpt lat="47.19484" lon="5.38691">
        <ele>186</ele>
        <time>2012-04-06T15:33:03Z</time>
      </trkpt>
      <trkpt lat="47.19473" lon="5.38677">
        <ele>186</ele>
        <time>2012-04-06T15:33:08Z</time>
      </trkpt>
      <trkpt lat="47.19464" lon="5.38672">
        <ele>185</ele>
        <time>2012-04-06T15:33:10Z</time>
      </trkpt>
      <trkpt lat="47.19448" lon="5.38665">
        <ele>185</ele>
        <time>2012-04-06T15:33:14Z</time>
      </trkpt>
      <trkpt lat="47.19452" lon="5.38625">
        <ele>185</ele>
        <time>2012-04-06T15:33:21Z</time>
      </trkpt>
      <trkpt lat="47.19466" lon="5.38564">
        <ele>185</ele>
        <time>2012-04-06T15:33:30Z</time>
      </trkpt>
      <trkpt lat="47.19487" lon="5.38497">
        <ele>186</ele>
        <time>2012-04-06T15:33:40Z</time>
      </trkpt>
      <trkpt lat="47.19477" lon="5.38439">
        <ele>186</ele>
        <time>2012-04-06T15:33:49Z</time>
      </trkpt>
      <trkpt lat="47.1947" lon="5.38416">
        <ele>187</ele>
        <time>2012-04-06T15:33:53Z</time>
      </trkpt>
      <trkpt lat="47.19466" lon="5.38406">
        <ele>187</ele>
        <time>2012-04-06T15:33:55Z</time>
      </trkpt>
      <trkpt lat="47.19441" lon="5.38388">
        <ele>187</ele>
        <time>2012-04-06T15:34:03Z</time>
      </trkpt>
      <trkpt lat="47.19436" lon="5.38363">
        <ele>188</ele>
        <time>2012-04-06T15:34:11Z</time>
      </trkpt>
      <trkpt lat="47.19468" lon="5.38265">
        <ele>191</ele>
        <time>2012-04-06T15:34:29Z</time>
      </trkpt>
      <trkpt lat="47.19519" lon="5.38113">
        <ele>188</ele>
        <time>2012-04-06T15:34:50Z</time>
      </trkpt>
      <trkpt lat="47.19527" lon="5.3805">
        <ele>188</ele>
        <time>2012-04-06T15:35:00Z</time>
      </trkpt>
      <trkpt lat="47.1951" lon="5.38027">
        <ele>187</ele>
        <time>2012-04-06T15:35:06Z</time>
      </trkpt>
      <trkpt lat="47.19483" lon="5.37994">
        <ele>185</ele>
        <time>2012-04-06T15:35:16Z</time>
      </trkpt>
      <trkpt lat="47.1948" lon="5.37961">
        <ele>185</ele>
        <time>2012-04-06T15:35:22Z</time>
      </trkpt>
      <trkpt lat="47.19456" lon="5.37863">
        <ele>185</ele>
        <time>2012-04-06T15:35:39Z</time>
      </trkpt>
      <trkpt lat="47.19435" lon="5.37785">
        <ele>184</ele>
        <time>2012-04-06T15:35:53Z</time>
      </trkpt>
      <trkpt lat="47.19425" lon="5.37751">
        <ele>184</ele>
        <time>2012-04-06T15:35:59Z</time>
      </trkpt>
      <trkpt lat="47.19421" lon="5.37717">
        <ele>185</ele>
        <time>2012-04-06T15:36:04Z</time>
      </trkpt>
      <trkpt lat="47.19433" lon="5.37605">
        <ele>185</ele>
        <time>2012-04-06T15:36:20Z</time>
      </trkpt>
      <trkpt lat="47.19429" lon="5.37569">
        <ele>184</ele>
        <time>2012-04-06T15:36:25Z</time>
      </trkpt>
      <trkpt lat="47.19419" lon="5.37545">
        <ele>184</ele>
        <time>2012-04-06T15:36:29Z</time>
      </trkpt>
      <trkpt lat="47.19406" lon="5.37523">
        <ele>184</ele>
        <time>2012-04-06T15:36:33Z</time>
      </trkpt>
      <trkpt lat="47.19387" lon="5.37509">
        <ele>184</ele>
        <time>2012-04-06T15:36:37Z</time>
      </trkpt>
      <trkpt lat="47.19369" lon="5.37505">
        <ele>184</ele>
        <time>2012-04-06T15:36:40Z</time>
      </trkpt>
      <trkpt lat="47.1936" lon="5.37499">
        <ele>184</ele>
        <time>2012-04-06T15:36:42Z</time>
      </trkpt>
      <trkpt lat="47.19323" lon="5.37419">
        <ele>184</ele>
        <time>2012-04-06T15:36:53Z</time>
      </trkpt>
      <trkpt lat="47.1928" lon="5.37319">
        <ele>184</ele>
        <time>2012-04-06T15:37:06Z</time>
      </trkpt>
      <trkpt lat="47.19225" lon="5.37159">
        <ele>184</ele>
        <time>2012-04-06T15:37:27Z</time>
      </trkpt>
      <trkpt lat="47.1914" lon="5.36918">
        <ele>184</ele>
        <time>2012-04-06T15:37:58Z</time>
      </trkpt>
      <trkpt lat="47.19062" lon="5.36697">
        <ele>183</ele>
        <time>2012-04-06T15:38:25Z</time>
      </trkpt>
      <trkpt lat="47.18986" lon="5.36479">
        <ele>184</ele>
        <time>2012-04-06T15:38:51Z</time>
      </trkpt>
      <trkpt lat="47.18928" lon="5.3632">
        <ele>184</ele>
        <time>2012-04-06T15:39:10Z</time>
      </trkpt>
      <trkpt lat="47.18897" lon="5.3625">
        <ele>184</ele>
        <time>2012-04-06T15:39:19Z</time>
      </trkpt>
      <trkpt lat="47.18824" lon="5.36147">
        <ele>184</ele>
        <time>2012-04-06T15:39:34Z</time>
      </trkpt>
      <trkpt lat="47.18662" lon="5.36039">
        <ele>184</ele>
        <time>2012-04-06T15:40:00Z</time>
      </trkpt>
      <trkpt lat="47.18533" lon="5.3591">
        <ele>184</ele>
        <time>2012-04-06T15:40:22Z</time>
      </trkpt>
      <trkpt lat="47.18367" lon="5.35747">
        <ele>183</ele>
        <time>2012-04-06T15:40:49Z</time>
      </trkpt>
      <trkpt lat="47.18244" lon="5.35619">
        <ele>183</ele>
        <time>2012-04-06T15:41:10Z</time>
      </trkpt>
      <trkpt lat="47.18187" lon="5.35555">
        <ele>183</ele>
        <time>2012-04-06T15:41:22Z</time>
      </trkpt>
      <trkpt lat="47.18178" lon="5.35525">
        <ele>184</ele>
        <time>2012-04-06T15:41:27Z</time>
      </trkpt>
      <trkpt lat="47.18179" lon="5.35503">
        <ele>183</ele>
        <time>2012-04-06T15:41:30Z</time>
      </trkpt>
      <trkpt lat="47.18183" lon="5.35446">
        <ele>184</ele>
        <time>2012-04-06T15:41:38Z</time>
      </trkpt>
      <trkpt lat="47.18206" lon="5.35376">
        <ele>184</ele>
        <time>2012-04-06T15:41:52Z</time>
      </trkpt>
      <trkpt lat="47.18204" lon="5.35309">
        <ele>185</ele>
        <time>2012-04-06T15:42:04Z</time>
      </trkpt>
      <trkpt lat="47.18172" lon="5.35187">
        <ele>188</ele>
        <time>2012-04-06T15:42:25Z</time>
      </trkpt>
      <trkpt lat="47.18131" lon="5.35046">
        <ele>191</ele>
        <time>2012-04-06T15:42:50Z</time>
      </trkpt>
      <trkpt lat="47.18106" lon="5.34967">
        <ele>193</ele>
        <time>2012-04-06T15:43:04Z</time>
      </trkpt>
      <trkpt lat="47.18101" lon="5.34943">
        <ele>195</ele>
        <time>2012-04-06T15:43:08Z</time>
      </trkpt>
      <trkpt lat="47.18082" lon="5.34778">
        <ele>197</ele>
        <time>2012-04-06T15:43:31Z</time>
      </trkpt>
      <trkpt lat="47.18087" lon="5.34655">
        <ele>198</ele>
        <time>2012-04-06T15:43:48Z</time>
      </trkpt>
      <trkpt lat="47.18078" lon="5.34608">
        <ele>198</ele>
        <time>2012-04-06T15:43:55Z</time>
      </trkpt>
      <trkpt lat="47.18029" lon="5.3447">
        <ele>199</ele>
        <time>2012-04-06T15:44:14Z</time>
      </trkpt>
      <trkpt lat="47.18034" lon="5.34357">
        <ele>200</ele>
        <time>2012-04-06T15:44:29Z</time>
      </trkpt>
      <trkpt lat="47.18038" lon="5.34326">
        <ele>200</ele>
        <time>2012-04-06T15:44:33Z</time>
      </trkpt>
      <trkpt lat="47.18022" lon="5.34271">
        <ele>200</ele>
        <time>2012-04-06T15:44:41Z</time>
      </trkpt>
      <trkpt lat="47.18005" lon="5.34249">
        <ele>200</ele>
        <time>2012-04-06T15:44:45Z</time>
      </trkpt>
      <trkpt lat="47.17961" lon="5.34192">
        <ele>200</ele>
        <time>2012-04-06T15:44:55Z</time>
      </trkpt>
      <trkpt lat="47.17933" lon="5.3416">
        <ele>200</ele>
        <time>2012-04-06T15:45:01Z</time>
      </trkpt>
      <trkpt lat="47.17919" lon="5.34133">
        <ele>200</ele>
        <time>2012-04-06T15:45:05Z</time>
      </trkpt>
      <trkpt lat="47.17833" lon="5.33998">
        <ele>201</ele>
        <time>2012-04-06T15:45:25Z</time>
      </trkpt>
      <trkpt lat="47.17807" lon="5.33923">
        <ele>204</ele>
        <time>2012-04-06T15:45:36Z</time>
      </trkpt>
      <trkpt lat="47.17752" lon="5.33776">
        <ele>202</ele>
        <time>2012-04-06T15:45:55Z</time>
      </trkpt>
      <trkpt lat="47.17733" lon="5.3371">
        <ele>201</ele>
        <time>2012-04-06T15:46:01Z</time>
      </trkpt>
      <trkpt lat="47.1774" lon="5.33595">
        <ele>200</ele>
        <time>2012-04-06T15:46:12Z</time>
      </trkpt>
      <trkpt lat="47.17749" lon="5.33548">
        <ele>200</ele>
        <time>2012-04-06T15:46:17Z</time>
      </trkpt>
      <trkpt lat="47.17747" lon="5.33509">
        <ele>200</ele>
        <time>2012-04-06T15:46:21Z</time>
      </trkpt>
      <trkpt lat="47.17715" lon="5.3336">
        <ele>198</ele>
        <time>2012-04-06T15:46:36Z</time>
      </trkpt>
      <trkpt lat="47.17692" lon="5.33219">
        <ele>197</ele>
        <time>2012-04-06T15:46:50Z</time>
      </trkpt>
      <trkpt lat="47.17715" lon="5.33115">
        <ele>197</ele>
        <time>2012-04-06T15:47:01Z</time>
      </trkpt>
      <trkpt lat="47.17718" lon="5.33105">
        <ele>197</ele>
        <time>2012-04-06T15:47:02Z</time>
      </trkpt>
      <trkpt lat="47.17719" lon="5.33021">
        <ele>196</ele>
        <time>2012-04-06T15:47:10Z</time>
      </trkpt>
      <trkpt lat="47.17704" lon="5.32959">
        <ele>196</ele>
        <time>2012-04-06T15:47:16Z</time>
      </trkpt>
      <trkpt lat="47.17713" lon="5.32884">
        <ele>196</ele>
        <time>2012-04-06T15:47:23Z</time>
      </trkpt>
      <trkpt lat="47.17766" lon="5.32727">
        <ele>196</ele>
        <time>2012-04-06T15:47:39Z</time>
      </trkpt>
      <trkpt lat="47.17782" lon="5.32527">
        <ele>195</ele>
        <time>2012-04-06T15:47:56Z</time>
      </trkpt>
      <trkpt lat="47.17766" lon="5.32338">
        <ele>194</ele>
        <time>2012-04-06T15:48:11Z</time>
      </trkpt>
      <trkpt lat="47.17759" lon="5.3221">
        <ele>193</ele>
        <time>2012-04-06T15:48:21Z</time>
      </trkpt>
      <trkpt lat="47.17763" lon="5.3216">
        <ele>193</ele>
        <time>2012-04-06T15:48:25Z</time>
      </trkpt>
      <trkpt lat="47.17771" lon="5.32112">
        <ele>193</ele>
        <time>2012-04-06T15:48:29Z</time>
      </trkpt>
      <trkpt lat="47.17769" lon="5.32065">
        <ele>192</ele>
        <time>2012-04-06T15:48:33Z</time>
      </trkpt>
      <trkpt lat="47.17756" lon="5.32016">
        <ele>192</ele>
        <time>2012-04-06T15:48:37Z</time>
      </trkpt>
      <trkpt lat="47.17765" lon="5.31924">
        <ele>192</ele>
        <time>2012-04-06T15:48:45Z</time>
      </trkpt>
      <trkpt lat="47.17822" lon="5.31798">
        <ele>191</ele>
        <time>2012-04-06T15:48:58Z</time>
      </trkpt>
      <trkpt lat="47.1782" lon="5.31701">
        <ele>191</ele>
        <time>2012-04-06T15:49:07Z</time>
      </trkpt>
      <trkpt lat="47.17811" lon="5.31684">
        <ele>191</ele>
        <time>2012-04-06T15:49:09Z</time>
      </trkpt>
      <trkpt lat="47.17721" lon="5.31582">
        <ele>191</ele>
        <time>2012-04-06T15:49:25Z</time>
      </trkpt>
      <trkpt lat="47.17684" lon="5.31561">
        <ele>190</ele>
        <time>2012-04-06T15:49:37Z</time>
      </trkpt>
      <trkpt lat="47.17679" lon="5.31558">
        <ele>190</ele>
        <time>2012-04-06T15:49:41Z</time>
      </trkpt>
      <trkpt lat="47.17683" lon="5.31563">
        <ele>190</ele>
        <time>2012-04-06T15:49:47Z</time>
      </trkpt>
      <trkpt lat="47.17693" lon="5.31567">
        <ele>190</ele>
        <time>2012-04-06T15:49:52Z</time>
      </trkpt>
      <trkpt lat="47.17699" lon="5.31556">
        <ele>190</ele>
        <time>2012-04-06T15:50:02Z</time>
      </trkpt>
      <trkpt lat="47.177" lon="5.31553">
        <ele>190</ele>
        <time>2012-04-06T15:50:10Z</time>
      </trkpt>
      <trkpt lat="47.17705" lon="5.31554">
        <ele>190</ele>
        <time>2012-04-06T15:50:15Z</time>
      </trkpt>
      <trkpt lat="47.17709" lon="5.31557">
        <ele>190</ele>
        <time>2012-04-06T15:50:35Z</time>
      </trkpt>
      <trkpt lat="47.17706" lon="5.31555">
        <ele>190</ele>
        <time>2012-04-06T15:51:45Z</time>
      </trkpt>
      <trkpt lat="47.17699" lon="5.31558">
        <ele>190</ele>
        <time>2012-04-06T15:52:01Z</time>
      </trkpt>
      <trkpt lat="47.17699" lon="5.31557">
        <ele>190</ele>
        <time>2012-04-06T15:52:06Z</time>
      </trkpt>
      <trkpt lat="47.17689" lon="5.31552">
        <ele>190</ele>
        <time>2012-04-06T15:52:12Z</time>
      </trkpt>
      <trkpt lat="47.17684" lon="5.31554">
        <ele>190</ele>
        <time>2012-04-06T15:52:16Z</time>
      </trkpt>
      <trkpt lat="47.1768" lon="5.31553">
        <ele>190</ele>
        <time>2012-04-06T15:52:33Z</time>
      </trkpt>
      <trkpt lat="47.1768" lon="5.31554">
        <ele>187</ele>
        <time>2012-04-06T15:58:22Z</time>
      </trkpt>
      <trkpt lat="47.1768" lon="5.31554">
        <ele>190</ele>
        <time>2012-04-06T15:58:32Z</time>
      </trkpt>
      <trkpt lat="47.1768" lon="5.31554">
        <ele>191</ele>
        <time>2012-04-06T15:59:00Z</time>
      </trkpt>
      <trkpt lat="47.1768" lon="5.31554">
        <ele>190</ele>
        <time>2012-04-06T15:59:02Z</time>
      </trkpt>
      <trkpt lat="47.17662" lon="5.31553">
        <ele>190</ele>
        <time>2012-04-06T15:59:27Z</time>
      </trkpt>
      <trkpt lat="47.17652" lon="5.316">
        <ele>190</ele>
        <time>2012-04-06T15:59:40Z</time>
      </trkpt>
      <trkpt lat="47.17633" lon="5.31673">
        <ele>191</ele>
        <time>2012-04-06T15:59:55Z</time>
      </trkpt>
      <trkpt lat="47.1759" lon="5.31778">
        <ele>190</ele>
        <time>2012-04-06T16:00:12Z</time>
      </trkpt>
      <trkpt lat="47.17537" lon="5.31919">
        <ele>191</ele>
        <time>2012-04-06T16:00:27Z</time>
      </trkpt>
      <trkpt lat="47.17468" lon="5.32077">
        <ele>193</ele>
        <time>2012-04-06T16:00:45Z</time>
      </trkpt>
      <trkpt lat="47.17368" lon="5.32254">
        <ele>192</ele>
        <time>2012-04-06T16:01:08Z</time>
      </trkpt>
      <trkpt lat="47.17273" lon="5.32439">
        <ele>192</ele>
        <time>2012-04-06T16:01:32Z</time>
      </trkpt>
      <trkpt lat="47.17239" lon="5.32491">
        <ele>192</ele>
        <time>2012-04-06T16:01:39Z</time>
      </trkpt>
      <trkpt lat="47.17198" lon="5.32618">
        <ele>192</ele>
        <time>2012-04-06T16:01:53Z</time>
      </trkpt>
      <trkpt lat="47.17147" lon="5.32752">
        <ele>194</ele>
        <time>2012-04-06T16:02:11Z</time>
      </trkpt>
      <trkpt lat="47.17064" lon="5.3288">
        <ele>192</ele>
        <time>2012-04-06T16:02:29Z</time>
      </trkpt>
      <trkpt lat="47.16983" lon="5.32989">
        <ele>189</ele>
        <time>2012-04-06T16:02:43Z</time>
      </trkpt>
      <trkpt lat="47.16876" lon="5.33093">
        <ele>186</ele>
        <time>2012-04-06T16:02:59Z</time>
      </trkpt>
      <trkpt lat="47.16814" lon="5.33104">
        <ele>186</ele>
        <time>2012-04-06T16:03:08Z</time>
      </trkpt>
      <trkpt lat="47.16778" lon="5.33134">
        <ele>186</ele>
        <time>2012-04-06T16:03:14Z</time>
      </trkpt>
      <trkpt lat="47.16703" lon="5.33277">
        <ele>185</ele>
        <time>2012-04-06T16:03:32Z</time>
      </trkpt>
      <trkpt lat="47.16627" lon="5.3336">
        <ele>186</ele>
        <time>2012-04-06T16:03:46Z</time>
      </trkpt>
      <trkpt lat="47.16569" lon="5.33456">
        <ele>186</ele>
        <time>2012-04-06T16:03:58Z</time>
      </trkpt>
      <trkpt lat="47.16502" lon="5.3364">
        <ele>187</ele>
        <time>2012-04-06T16:04:17Z</time>
      </trkpt>
      <trkpt lat="47.16413" lon="5.33748">
        <ele>186</ele>
        <time>2012-04-06T16:04:33Z</time>
      </trkpt>
      <trkpt lat="47.16322" lon="5.33818">
        <ele>187</ele>
        <time>2012-04-06T16:04:47Z</time>
      </trkpt>
      <trkpt lat="47.16204" lon="5.33918">
        <ele>187</ele>
        <time>2012-04-06T16:05:06Z</time>
      </trkpt>
      <trkpt lat="47.16173" lon="5.33943">
        <ele>186</ele>
        <time>2012-04-06T16:05:11Z</time>
      </trkpt>
      <trkpt lat="47.16048" lon="5.34038">
        <ele>187</ele>
        <time>2012-04-06T16:05:31Z</time>
      </trkpt>
      <trkpt lat="47.15944" lon="5.34184">
        <ele>186</ele>
        <time>2012-04-06T16:05:51Z</time>
      </trkpt>
      <trkpt lat="47.15836" lon="5.34325">
        <ele>186</ele>
        <time>2012-04-06T16:06:12Z</time>
      </trkpt>
      <trkpt lat="47.1572" lon="5.34418">
        <ele>186</ele>
        <time>2012-04-06T16:06:31Z</time>
      </trkpt>
      <trkpt lat="47.15601" lon="5.34545">
        <ele>186</ele>
        <time>2012-04-06T16:06:52Z</time>
      </trkpt>
      <trkpt lat="47.15527" lon="5.34705">
        <ele>186</ele>
        <time>2012-04-06T16:07:11Z</time>
      </trkpt>
      <trkpt lat="47.15423" lon="5.34846">
        <ele>186</ele>
        <time>2012-04-06T16:07:31Z</time>
      </trkpt>
      <trkpt lat="47.15341" lon="5.34962">
        <ele>186</ele>
        <time>2012-04-06T16:07:48Z</time>
      </trkpt>
      <trkpt lat="47.15267" lon="5.35106">
        <ele>185</ele>
        <time>2012-04-06T16:08:06Z</time>
      </trkpt>
      <trkpt lat="47.15223" lon="5.35203">
        <ele>184</ele>
        <time>2012-04-06T16:08:21Z</time>
      </trkpt>
      <trkpt lat="47.15214" lon="5.35215">
        <ele>183</ele>
        <time>2012-04-06T16:08:26Z</time>
      </trkpt>
      <trkpt lat="47.15147" lon="5.35229">
        <ele>184</ele>
        <time>2012-04-06T16:08:38Z</time>
      </trkpt>
      <trkpt lat="47.15069" lon="5.35231">
        <ele>184</ele>
        <time>2012-04-06T16:08:50Z</time>
      </trkpt>
      <trkpt lat="47.14957" lon="5.35171">
        <ele>184</ele>
        <time>2012-04-06T16:09:06Z</time>
      </trkpt>
      <trkpt lat="47.14842" lon="5.35084">
        <ele>184</ele>
        <time>2012-04-06T16:09:22Z</time>
      </trkpt>
      <trkpt lat="47.14721" lon="5.34978">
        <ele>184</ele>
        <time>2012-04-06T16:09:42Z</time>
      </trkpt>
      <trkpt lat="47.1459" lon="5.34845">
        <ele>184</ele>
        <time>2012-04-06T16:10:06Z</time>
      </trkpt>
      <trkpt lat="47.14456" lon="5.3472">
        <ele>184</ele>
        <time>2012-04-06T16:10:28Z</time>
      </trkpt>
      <trkpt lat="47.14335" lon="5.34657">
        <ele>184</ele>
        <time>2012-04-06T16:10:46Z</time>
      </trkpt>
      <trkpt lat="47.14276" lon="5.34623">
        <ele>184</ele>
        <time>2012-04-06T16:10:55Z</time>
      </trkpt>
      <trkpt lat="47.14137" lon="5.34555">
        <ele>183</ele>
        <time>2012-04-06T16:11:15Z</time>
      </trkpt>
      <trkpt lat="47.13984" lon="5.34474">
        <ele>183</ele>
        <time>2012-04-06T16:11:37Z</time>
      </trkpt>
      <trkpt lat="47.13913" lon="5.34411">
        <ele>183</ele>
        <time>2012-04-06T16:11:53Z</time>
      </trkpt>
      <trkpt lat="47.13909" lon="5.34408">
        <ele>183</ele>
        <time>2012-04-06T16:11:54Z</time>
      </trkpt>
      <trkpt lat="47.1389" lon="5.34411">
        <ele>183</ele>
        <time>2012-04-06T16:11:59Z</time>
      </trkpt>
      <trkpt lat="47.13821" lon="5.34532">
        <ele>183</ele>
        <time>2012-04-06T16:12:15Z</time>
      </trkpt>
      <trkpt lat="47.13758" lon="5.34642">
        <ele>183</ele>
        <time>2012-04-06T16:12:30Z</time>
      </trkpt>
      <trkpt lat="47.13702" lon="5.34741">
        <ele>183</ele>
        <time>2012-04-06T16:12:44Z</time>
      </trkpt>
      <trkpt lat="47.13628" lon="5.34862">
        <ele>183</ele>
        <time>2012-04-06T16:13:00Z</time>
      </trkpt>
      <trkpt lat="47.13538" lon="5.35016">
        <ele>183</ele>
        <time>2012-04-06T16:13:20Z</time>
      </trkpt>
      <trkpt lat="47.13421" lon="5.35216">
        <ele>184</ele>
        <time>2012-04-06T16:13:46Z</time>
      </trkpt>
      <trkpt lat="47.13301" lon="5.35424">
        <ele>182</ele>
        <time>2012-04-06T16:14:12Z</time>
      </trkpt>
      <trkpt lat="47.13225" lon="5.35553">
        <ele>182</ele>
        <time>2012-04-06T16:14:28Z</time>
      </trkpt>
      <trkpt lat="47.13111" lon="5.35752">
        <ele>183</ele>
        <time>2012-04-06T16:14:53Z</time>
      </trkpt>
      <trkpt lat="47.13008" lon="5.35925">
        <ele>182</ele>
        <time>2012-04-06T16:15:16Z</time>
      </trkpt>
      <trkpt lat="47.12918" lon="5.36034">
        <ele>184</ele>
        <time>2012-04-06T16:15:33Z</time>
      </trkpt>
      <trkpt lat="47.12855" lon="5.36078">
        <ele>186</ele>
        <time>2012-04-06T16:15:44Z</time>
      </trkpt>
      <trkpt lat="47.12752" lon="5.36153">
        <ele>189</ele>
        <time>2012-04-06T16:16:03Z</time>
      </trkpt>
      <trkpt lat="47.12607" lon="5.36257">
        <ele>186</ele>
        <time>2012-04-06T16:16:26Z</time>
      </trkpt>
      <trkpt lat="47.12484" lon="5.36362">
        <ele>183</ele>
        <time>2012-04-06T16:16:43Z</time>
      </trkpt>
      <trkpt lat="47.12375" lon="5.36496">
        <ele>183</ele>
        <time>2012-04-06T16:17:03Z</time>
      </trkpt>
      <trkpt lat="47.12252" lon="5.36655">
        <ele>184</ele>
        <time>2012-04-06T16:17:27Z</time>
      </trkpt>
      <trkpt lat="47.12185" lon="5.36753">
        <ele>185</ele>
        <time>2012-04-06T16:17:43Z</time>
      </trkpt>
      <trkpt lat="47.12182" lon="5.36758">
        <ele>186</ele>
        <time>2012-04-06T16:17:44Z</time>
      </trkpt>
      <trkpt lat="47.12162" lon="5.36758">
        <ele>187</ele>
        <time>2012-04-06T16:17:49Z</time>
      </trkpt>
      <trkpt lat="47.1213" lon="5.3673">
        <ele>188</ele>
        <time>2012-04-06T16:17:57Z</time>
      </trkpt>
      <trkpt lat="47.12119" lon="5.3671">
        <ele>189</ele>
        <time>2012-04-06T16:18:01Z</time>
      </trkpt>
      <trkpt lat="47.12064" lon="5.36589">
        <ele>192</ele>
        <time>2012-04-06T16:18:22Z</time>
      </trkpt>
      <trkpt lat="47.1202" lon="5.36523">
        <ele>195</ele>
        <time>2012-04-06T16:18:37Z</time>
      </trkpt>
      <trkpt lat="47.11933" lon="5.36409">
        <ele>195</ele>
        <time>2012-04-06T16:18:59Z</time>
      </trkpt>
      <trkpt lat="47.11894" lon="5.36371">
        <ele>194</ele>
        <time>2012-04-06T16:19:06Z</time>
      </trkpt>
      <trkpt lat="47.11861" lon="5.36314">
        <ele>192</ele>
        <time>2012-04-06T16:19:13Z</time>
      </trkpt>
      <trkpt lat="47.11808" lon="5.36134">
        <ele>190</ele>
        <time>2012-04-06T16:19:31Z</time>
      </trkpt>
      <trkpt lat="47.11775" lon="5.36022">
        <ele>192</ele>
        <time>2012-04-06T16:19:45Z</time>
      </trkpt>
      <trkpt lat="47.11776" lon="5.35978">
        <ele>192</ele>
        <time>2012-04-06T16:19:50Z</time>
      </trkpt>
      <trkpt lat="47.11778" lon="5.3596">
        <ele>193</ele>
        <time>2012-04-06T16:19:52Z</time>
      </trkpt>
      <trkpt lat="47.11772" lon="5.35908">
        <ele>194</ele>
        <time>2012-04-06T16:19:58Z</time>
      </trkpt>
      <trkpt lat="47.11719" lon="5.35734">
        <ele>195</ele>
        <time>2012-04-06T16:20:19Z</time>
      </trkpt>
      <trkpt lat="47.11661" lon="5.35552">
        <ele>197</ele>
        <time>2012-04-06T16:20:42Z</time>
      </trkpt>
      <trkpt lat="47.1159" lon="5.354">
        <ele>198</ele>
        <time>2012-04-06T16:21:03Z</time>
      </trkpt>
      <trkpt lat="47.11545" lon="5.3525">
        <ele>198</ele>
        <time>2012-04-06T16:21:21Z</time>
      </trkpt>
      <trkpt lat="47.11489" lon="5.35074">
        <ele>198</ele>
        <time>2012-04-06T16:21:41Z</time>
      </trkpt>
      <trkpt lat="47.11409" lon="5.34903">
        <ele>199</ele>
        <time>2012-04-06T16:22:02Z</time>
      </trkpt>
      <trkpt lat="47.11331" lon="5.34744">
        <ele>197</ele>
        <time>2012-04-06T16:22:22Z</time>
      </trkpt>
      <trkpt lat="47.11298" lon="5.34587">
        <ele>196</ele>
        <time>2012-04-06T16:22:37Z</time>
      </trkpt>
      <trkpt lat="47.11245" lon="5.34372">
        <ele>194</ele>
        <time>2012-04-06T16:22:56Z</time>
      </trkpt>
      <trkpt lat="47.11209" lon="5.34183">
        <ele>196</ele>
        <time>2012-04-06T16:23:14Z</time>
      </trkpt>
      <trkpt lat="47.11163" lon="5.3408">
        <ele>198</ele>
        <time>2012-04-06T16:23:27Z</time>
      </trkpt>
      <trkpt lat="47.1111" lon="5.33971">
        <ele>198</ele>
        <time>2012-04-06T16:23:41Z</time>
      </trkpt>
      <trkpt lat="47.11019" lon="5.33767">
        <ele>199</ele>
        <time>2012-04-06T16:24:05Z</time>
      </trkpt>
      <trkpt lat="47.10959" lon="5.33582">
        <ele>199</ele>
        <time>2012-04-06T16:24:25Z</time>
      </trkpt>
      <trkpt lat="47.109" lon="5.33361">
        <ele>200</ele>
        <time>2012-04-06T16:24:48Z</time>
      </trkpt>
      <trkpt lat="47.10845" lon="5.33202">
        <ele>200</ele>
        <time>2012-04-06T16:25:05Z</time>
      </trkpt>
      <trkpt lat="47.10789" lon="5.33065">
        <ele>199</ele>
        <time>2012-04-06T16:25:20Z</time>
      </trkpt>
      <trkpt lat="47.10717" lon="5.32857">
        <ele>196</ele>
        <time>2012-04-06T16:25:40Z</time>
      </trkpt>
      <trkpt lat="47.10677" lon="5.32729">
        <ele>193</ele>
        <time>2012-04-06T16:25:51Z</time>
      </trkpt>
      <trkpt lat="47.10596" lon="5.32466">
        <ele>190</ele>
        <time>2012-04-06T16:26:13Z</time>
      </trkpt>
      <trkpt lat="47.10515" lon="5.3228">
        <ele>190</ele>
        <time>2012-04-06T16:26:31Z</time>
      </trkpt>
      <trkpt lat="47.10355" lon="5.32072">
        <ele>189</ele>
        <time>2012-04-06T16:26:57Z</time>
      </trkpt>
      <trkpt lat="47.1022" lon="5.31915">
        <ele>186</ele>
        <time>2012-04-06T16:27:17Z</time>
      </trkpt>
      <trkpt lat="47.10125" lon="5.31797">
        <ele>188</ele>
        <time>2012-04-06T16:27:32Z</time>
      </trkpt>
      <trkpt lat="47.1011" lon="5.31778">
        <ele>189</ele>
        <time>2012-04-06T16:27:35Z</time>
      </trkpt>
      <trkpt lat="47.10074" lon="5.31736">
        <ele>190</ele>
        <time>2012-04-06T16:27:43Z</time>
      </trkpt>
      <trkpt lat="47.10056" lon="5.31707">
        <ele>190</ele>
        <time>2012-04-06T16:27:47Z</time>
      </trkpt>
      <trkpt lat="47.10039" lon="5.31663">
        <ele>188</ele>
        <time>2012-04-06T16:27:51Z</time>
      </trkpt>
      <trkpt lat="47.10034" lon="5.31638">
        <ele>188</ele>
        <time>2012-04-06T16:27:53Z</time>
      </trkpt>
      <trkpt lat="47.10041" lon="5.31565">
        <ele>188</ele>
        <time>2012-04-06T16:27:59Z</time>
      </trkpt>
      <trkpt lat="47.10112" lon="5.31379">
        <ele>189</ele>
        <time>2012-04-06T16:28:18Z</time>
      </trkpt>
      <trkpt lat="47.10184" lon="5.31184">
        <ele>189</ele>
        <time>2012-04-06T16:28:37Z</time>
      </trkpt>
      <trkpt lat="47.10226" lon="5.31034">
        <ele>189</ele>
        <time>2012-04-06T16:28:55Z</time>
      </trkpt>
      <trkpt lat="47.10235" lon="5.30886">
        <ele>189</ele>
        <time>2012-04-06T16:29:12Z</time>
      </trkpt>
      <trkpt lat="47.1023" lon="5.30752">
        <ele>190</ele>
        <time>2012-04-06T16:29:31Z</time>
      </trkpt>
      <trkpt lat="47.10235" lon="5.30643">
        <ele>189</ele>
        <time>2012-04-06T16:29:47Z</time>
      </trkpt>
      <trkpt lat="47.10248" lon="5.30476">
        <ele>187</ele>
        <time>2012-04-06T16:30:06Z</time>
      </trkpt>
      <trkpt lat="47.10248" lon="5.30466">
        <ele>187</ele>
        <time>2012-04-06T16:30:07Z</time>
      </trkpt>
      <trkpt lat="47.10229" lon="5.30326">
        <ele>187</ele>
        <time>2012-04-06T16:30:22Z</time>
      </trkpt>
      <trkpt lat="47.10199" lon="5.30186">
        <ele>188</ele>
        <time>2012-04-06T16:30:40Z</time>
      </trkpt>
      <trkpt lat="47.10195" lon="5.30171">
        <ele>187</ele>
        <time>2012-04-06T16:30:42Z</time>
      </trkpt>
      <trkpt lat="47.10164" lon="5.30115">
        <ele>188</ele>
        <time>2012-04-06T16:30:50Z</time>
      </trkpt>
      <trkpt lat="47.1014" lon="5.30091">
        <ele>188</ele>
        <time>2012-04-06T16:30:55Z</time>
      </trkpt>
      <trkpt lat="47.10124" lon="5.30061">
        <ele>189</ele>
        <time>2012-04-06T16:31:00Z</time>
      </trkpt>
      <trkpt lat="47.101" lon="5.29936">
        <ele>189</ele>
        <time>2012-04-06T16:31:15Z</time>
      </trkpt>
      <trkpt lat="47.10047" lon="5.29781">
        <ele>190</ele>
        <time>2012-04-06T16:31:34Z</time>
      </trkpt>
      <trkpt lat="47.10013" lon="5.29614">
        <ele>190</ele>
        <time>2012-04-06T16:31:52Z</time>
      </trkpt>
      <trkpt lat="47.09975" lon="5.29447">
        <ele>189</ele>
        <time>2012-04-06T16:32:09Z</time>
      </trkpt>
      <trkpt lat="47.09922" lon="5.29265">
        <ele>189</ele>
        <time>2012-04-06T16:32:27Z</time>
      </trkpt>
      <trkpt lat="47.09846" lon="5.2915">
        <ele>190</ele>
        <time>2012-04-06T16:32:42Z</time>
      </trkpt>
      <trkpt lat="47.09762" lon="5.29014">
        <ele>189</ele>
        <time>2012-04-06T16:32:59Z</time>
      </trkpt>
      <trkpt lat="47.09731" lon="5.28853">
        <ele>190</ele>
        <time>2012-04-06T16:33:14Z</time>
      </trkpt>
      <trkpt lat="47.0971" lon="5.28593">
        <ele>189</ele>
        <time>2012-04-06T16:33:37Z</time>
      </trkpt>
      <trkpt lat="47.09667" lon="5.28416">
        <ele>186</ele>
        <time>2012-04-06T16:33:52Z</time>
      </trkpt>
      <trkpt lat="47.09606" lon="5.28194">
        <ele>185</ele>
        <time>2012-04-06T16:34:09Z</time>
      </trkpt>
      <trkpt lat="47.09531" lon="5.27929">
        <ele>186</ele>
        <time>2012-04-06T16:34:32Z</time>
      </trkpt>
      <trkpt lat="47.09473" lon="5.27774">
        <ele>188</ele>
        <time>2012-04-06T16:34:47Z</time>
      </trkpt>
      <trkpt lat="47.09441" lon="5.27674">
        <ele>186</ele>
        <time>2012-04-06T16:34:56Z</time>
      </trkpt>
      <trkpt lat="47.09401" lon="5.2762">
        <ele>185</ele>
        <time>2012-04-06T16:35:03Z</time>
      </trkpt>
      <trkpt lat="47.09362" lon="5.2759">
        <ele>185</ele>
        <time>2012-04-06T16:35:09Z</time>
      </trkpt>
      <trkpt lat="47.09332" lon="5.27543">
        <ele>185</ele>
        <time>2012-04-06T16:35:15Z</time>
      </trkpt>
      <trkpt lat="47.09278" lon="5.27389">
        <ele>186</ele>
        <time>2012-04-06T16:35:34Z</time>
      </trkpt>
      <trkpt lat="47.09231" lon="5.27265">
        <ele>186</ele>
        <time>2012-04-06T16:35:52Z</time>
      </trkpt>
      <trkpt lat="47.09186" lon="5.27132">
        <ele>184</ele>
        <time>2012-04-06T16:36:10Z</time>
      </trkpt>
      <trkpt lat="47.09162" lon="5.27129">
        <ele>184</ele>
        <time>2012-04-06T16:36:17Z</time>
      </trkpt>
      <trkpt lat="47.09096" lon="5.27241">
        <ele>186</ele>
        <time>2012-04-06T16:36:37Z</time>
      </trkpt>
      <trkpt lat="47.09051" lon="5.27312">
        <ele>185</ele>
        <time>2012-04-06T16:36:48Z</time>
      </trkpt>
      <trkpt lat="47.09009" lon="5.27316">
        <ele>185</ele>
        <time>2012-04-06T16:36:55Z</time>
      </trkpt>
      <trkpt lat="47.08992" lon="5.27301">
        <ele>185</ele>
        <time>2012-04-06T16:36:58Z</time>
      </trkpt>
      <trkpt lat="47.08953" lon="5.27289">
        <ele>185</ele>
        <time>2012-04-06T16:37:04Z</time>
      </trkpt>
      <trkpt lat="47.08921" lon="5.27298">
        <ele>185</ele>
        <time>2012-04-06T16:37:09Z</time>
      </trkpt>
      <trkpt lat="47.08808" lon="5.27386">
        <ele>185</ele>
        <time>2012-04-06T16:37:27Z</time>
      </trkpt>
      <trkpt lat="47.08692" lon="5.2746">
        <ele>185</ele>
        <time>2012-04-06T16:37:43Z</time>
      </trkpt>
      <trkpt lat="47.08667" lon="5.27487">
        <ele>185</ele>
        <time>2012-04-06T16:37:47Z</time>
      </trkpt>
      <trkpt lat="47.0864" lon="5.27543">
        <ele>185</ele>
        <time>2012-04-06T16:37:53Z</time>
      </trkpt>
      <trkpt lat="47.08597" lon="5.27685">
        <ele>184</ele>
        <time>2012-04-06T16:38:07Z</time>
      </trkpt>
      <trkpt lat="47.08529" lon="5.27859">
        <ele>184</ele>
        <time>2012-04-06T16:38:24Z</time>
      </trkpt>
      <trkpt lat="47.08458" lon="5.28029">
        <ele>184</ele>
        <time>2012-04-06T16:38:42Z</time>
      </trkpt>
      <trkpt lat="47.08328" lon="5.2823">
        <ele>184</ele>
        <time>2012-04-06T16:39:05Z</time>
      </trkpt>
      <trkpt lat="47.08313" lon="5.28257">
        <ele>183</ele>
        <time>2012-04-06T16:39:08Z</time>
      </trkpt>
      <trkpt lat="47.08304" lon="5.28331">
        <ele>185</ele>
        <time>2012-04-06T16:39:15Z</time>
      </trkpt>
      <trkpt lat="47.08322" lon="5.28431">
        <ele>184</ele>
        <time>2012-04-06T16:39:27Z</time>
      </trkpt>
      <trkpt lat="47.08319" lon="5.28467">
        <ele>184</ele>
        <time>2012-04-06T16:39:31Z</time>
      </trkpt>
      <trkpt lat="47.08265" lon="5.28612">
        <ele>185</ele>
        <time>2012-04-06T16:39:49Z</time>
      </trkpt>
      <trkpt lat="47.08192" lon="5.28708">
        <ele>185</ele>
        <time>2012-04-06T16:40:03Z</time>
      </trkpt>
      <trkpt lat="47.08138" lon="5.28772">
        <ele>184</ele>
        <time>2012-04-06T16:40:14Z</time>
      </trkpt>
      <trkpt lat="47.0812" lon="5.28794">
        <ele>185</ele>
        <time>2012-04-06T16:40:27Z</time>
      </trkpt>
      <trkpt lat="47.08092" lon="5.28823">
        <ele>185</ele>
        <time>2012-04-06T16:40:37Z</time>
      </trkpt>
      <trkpt lat="47.08089" lon="5.28826">
        <ele>184</ele>
        <time>2012-04-06T16:40:49Z</time>
      </trkpt>
      <trkpt lat="47.08076" lon="5.28843">
        <ele>184</ele>
        <time>2012-04-06T16:41:21Z</time>
      </trkpt>
      <trkpt lat="47.08054" lon="5.28906">
        <ele>185</ele>
        <time>2012-04-06T16:41:36Z</time>
      </trkpt>
      <trkpt lat="47.08019" lon="5.29009">
        <ele>187</ele>
        <time>2012-04-06T16:41:52Z</time>
      </trkpt>
      <trkpt lat="47.07953" lon="5.29092">
        <ele>186</ele>
        <time>2012-04-06T16:42:07Z</time>
      </trkpt>
      <trkpt lat="47.07899" lon="5.29177">
        <ele>186</ele>
        <time>2012-04-06T16:42:20Z</time>
      </trkpt>
      <trkpt lat="47.07841" lon="5.29368">
        <ele>186</ele>
        <time>2012-04-06T16:42:42Z</time>
      </trkpt>
      <trkpt lat="47.07807" lon="5.2954">
        <ele>186</ele>
        <time>2012-04-06T16:43:01Z</time>
      </trkpt>
      <trkpt lat="47.07814" lon="5.29679">
        <ele>189</ele>
        <time>2012-04-06T16:43:16Z</time>
      </trkpt>
      <trkpt lat="47.07785" lon="5.29819">
        <ele>189</ele>
        <time>2012-04-06T16:43:32Z</time>
      </trkpt>
      <trkpt lat="47.07757" lon="5.30032">
        <ele>187</ele>
        <time>2012-04-06T16:43:54Z</time>
      </trkpt>
      <trkpt lat="47.0772" lon="5.30162">
        <ele>188</ele>
        <time>2012-04-06T16:44:09Z</time>
      </trkpt>
      <trkpt lat="47.07665" lon="5.30346">
        <ele>187</ele>
        <time>2012-04-06T16:44:29Z</time>
      </trkpt>
      <trkpt lat="47.07624" lon="5.30491">
        <ele>188</ele>
        <time>2012-04-06T16:44:47Z</time>
      </trkpt>
      <trkpt lat="47.07574" lon="5.30669">
        <ele>188</ele>
        <time>2012-04-06T16:45:09Z</time>
      </trkpt>
      <trkpt lat="47.07513" lon="5.30886">
        <ele>189</ele>
        <time>2012-04-06T16:45:34Z</time>
      </trkpt>
      <trkpt lat="47.07435" lon="5.31167">
        <ele>189</ele>
        <time>2012-04-06T16:46:05Z</time>
      </trkpt>
      <trkpt lat="47.07382" lon="5.31361">
        <ele>189</ele>
        <time>2012-04-06T16:46:27Z</time>
      </trkpt>
      <trkpt lat="47.07333" lon="5.31536">
        <ele>188</ele>
        <time>2012-04-06T16:46:47Z</time>
      </trkpt>
      <trkpt lat="47.07304" lon="5.31638">
        <ele>189</ele>
        <time>2012-04-06T16:46:59Z</time>
      </trkpt>
      <trkpt lat="47.07227" lon="5.31888">
        <ele>189</ele>
        <time>2012-04-06T16:47:29Z</time>
      </trkpt>
      <trkpt lat="47.07182" lon="5.32026">
        <ele>193</ele>
        <time>2012-04-06T16:47:47Z</time>
      </trkpt>
      <trkpt lat="47.07145" lon="5.32134">
        <ele>196</ele>
        <time>2012-04-06T16:48:03Z</time>
      </trkpt>
      <trkpt lat="47.07133" lon="5.32172">
        <ele>195</ele>
        <time>2012-04-06T16:48:10Z</time>
      </trkpt>
      <trkpt lat="47.071" lon="5.32294">
        <ele>193</ele>
        <time>2012-04-06T16:48:26Z</time>
      </trkpt>
      <trkpt lat="47.07071" lon="5.32433">
        <ele>190</ele>
        <time>2012-04-06T16:48:40Z</time>
      </trkpt>
      <trkpt lat="47.07012" lon="5.32651">
        <ele>190</ele>
        <time>2012-04-06T16:49:03Z</time>
      </trkpt>
      <trkpt lat="47.06948" lon="5.32877">
        <ele>189</ele>
        <time>2012-04-06T16:49:29Z</time>
      </trkpt>
      <trkpt lat="47.06887" lon="5.33089">
        <ele>190</ele>
        <time>2012-04-06T16:49:54Z</time>
      </trkpt>
      <trkpt lat="47.0682" lon="5.33323">
        <ele>189</ele>
        <time>2012-04-06T16:50:22Z</time>
      </trkpt>
      <trkpt lat="47.06765" lon="5.33513">
        <ele>188</ele>
        <time>2012-04-06T16:50:44Z</time>
      </trkpt>
      <trkpt lat="47.06723" lon="5.33663">
        <ele>188</ele>
        <time>2012-04-06T16:51:01Z</time>
      </trkpt>
      <trkpt lat="47.06666" lon="5.33857">
        <ele>188</ele>
        <time>2012-04-06T16:51:25Z</time>
      </trkpt>
      <trkpt lat="47.06637" lon="5.33931">
        <ele>188</ele>
        <time>2012-04-06T16:51:35Z</time>
      </trkpt>
      <trkpt lat="47.06589" lon="5.33957">
        <ele>188</ele>
        <time>2012-04-06T16:51:44Z</time>
      </trkpt>
      <trkpt lat="47.06509" lon="5.33932">
        <ele>189</ele>
        <time>2012-04-06T16:51:59Z</time>
      </trkpt>
      <trkpt lat="47.06476" lon="5.33923">
        <ele>189</ele>
        <time>2012-04-06T16:52:05Z</time>
      </trkpt>
      <trkpt lat="47.06454" lon="5.33929">
        <ele>189</ele>
        <time>2012-04-06T16:52:09Z</time>
      </trkpt>
      <trkpt lat="47.06415" lon="5.3396">
        <ele>189</ele>
        <time>2012-04-06T16:52:17Z</time>
      </trkpt>
      <trkpt lat="47.06341" lon="5.34043">
        <ele>189</ele>
        <time>2012-04-06T16:52:32Z</time>
      </trkpt>
      <trkpt lat="47.06238" lon="5.34155">
        <ele>190</ele>
        <time>2012-04-06T16:52:54Z</time>
      </trkpt>
      <trkpt lat="47.06223" lon="5.34162">
        <ele>189</ele>
        <time>2012-04-06T16:52:57Z</time>
      </trkpt>
      <trkpt lat="47.06214" lon="5.34169">
        <ele>189</ele>
        <time>2012-04-06T16:52:59Z</time>
      </trkpt>
      <trkpt lat="47.06199" lon="5.34199">
        <ele>189</ele>
        <time>2012-04-06T16:53:04Z</time>
      </trkpt>
      <trkpt lat="47.06151" lon="5.34447">
        <ele>189</ele>
        <time>2012-04-06T16:53:34Z</time>
      </trkpt>
      <trkpt lat="47.06089" lon="5.34608">
        <ele>189</ele>
        <time>2012-04-06T16:53:56Z</time>
      </trkpt>
      <trkpt lat="47.06083" lon="5.34623">
        <ele>189</ele>
        <time>2012-04-06T16:53:58Z</time>
      </trkpt>
      <trkpt lat="47.06048" lon="5.34634">
        <ele>189</ele>
        <time>2012-04-06T16:54:05Z</time>
      </trkpt>
      <trkpt lat="47.06016" lon="5.34599">
        <ele>189</ele>
        <time>2012-04-06T16:54:16Z</time>
      </trkpt>
      <trkpt lat="47.06016" lon="5.34596">
        <ele>189</ele>
        <time>2012-04-06T16:54:34Z</time>
      </trkpt>
      <trkpt lat="47.06018" lon="5.34599">
        <ele>189</ele>
        <time>2012-04-06T16:55:48Z</time>
      </trkpt>
      <trkpt lat="47.06014" lon="5.34598">
        <ele>189</ele>
        <time>2012-04-06T16:56:20Z</time>
      </trkpt>
      <trkpt lat="47.06011" lon="5.34593">
        <ele>189</ele>
        <time>2012-04-06T16:56:23Z</time>
      </trkpt>
      <trkpt lat="47.06001" lon="5.34603">
        <ele>189</ele>
        <time>2012-04-06T16:56:29Z</time>
      </trkpt>
      <trkpt lat="47.05974" lon="5.34682">
        <ele>190</ele>
        <time>2012-04-06T16:56:45Z</time>
      </trkpt>
      <trkpt lat="47.05915" lon="5.34791">
        <ele>189</ele>
        <time>2012-04-06T16:57:02Z</time>
      </trkpt>
      <trkpt lat="47.05862" lon="5.34901">
        <ele>189</ele>
        <time>2012-04-06T16:57:18Z</time>
      </trkpt>
      <trkpt lat="47.05776" lon="5.35111">
        <ele>190</ele>
        <time>2012-04-06T16:57:45Z</time>
      </trkpt>
      <trkpt lat="47.05773" lon="5.3512">
        <ele>190</ele>
        <time>2012-04-06T16:57:46Z</time>
      </trkpt>
      <trkpt lat="47.05785" lon="5.35175">
        <ele>190</ele>
        <time>2012-04-06T16:57:53Z</time>
      </trkpt>
      <trkpt lat="47.05891" lon="5.3528">
        <ele>190</ele>
        <time>2012-04-06T16:58:11Z</time>
      </trkpt>
      <trkpt lat="47.05922" lon="5.35303">
        <ele>190</ele>
        <time>2012-04-06T16:58:16Z</time>
      </trkpt>
      <trkpt lat="47.05962" lon="5.3532">
        <ele>191</ele>
        <time>2012-04-06T16:58:22Z</time>
      </trkpt>
      <trkpt lat="47.06037" lon="5.35313">
        <ele>190</ele>
        <time>2012-04-06T16:58:33Z</time>
      </trkpt>
      <trkpt lat="47.06063" lon="5.35315">
        <ele>190</ele>
        <time>2012-04-06T16:58:37Z</time>
      </trkpt>
      <trkpt lat="47.06133" lon="5.35371">
        <ele>190</ele>
        <time>2012-04-06T16:58:50Z</time>
      </trkpt>
      <trkpt lat="47.06205" lon="5.35454">
        <ele>190</ele>
        <time>2012-04-06T16:59:05Z</time>
      </trkpt>
      <trkpt lat="47.06265" lon="5.35502">
        <ele>190</ele>
        <time>2012-04-06T16:59:16Z</time>
      </trkpt>
      <trkpt lat="47.06338" lon="5.35589">
        <ele>190</ele>
        <time>2012-04-06T16:59:34Z</time>
      </trkpt>
      <trkpt lat="47.06391" lon="5.35689">
        <ele>190</ele>
        <time>2012-04-06T16:59:48Z</time>
      </trkpt>
      <trkpt lat="47.06447" lon="5.35845">
        <ele>190</ele>
        <time>2012-04-06T17:00:08Z</time>
      </trkpt>
      <trkpt lat="47.06508" lon="5.36018">
        <ele>190</ele>
        <time>2012-04-06T17:00:31Z</time>
      </trkpt>
      <trkpt lat="47.06509" lon="5.36046">
        <ele>190</ele>
        <time>2012-04-06T17:00:35Z</time>
      </trkpt>
      <trkpt lat="47.0647" lon="5.36217">
        <ele>190</ele>
        <time>2012-04-06T17:00:55Z</time>
      </trkpt>
      <trkpt lat="47.06437" lon="5.36382">
        <ele>191</ele>
        <time>2012-04-06T17:01:15Z</time>
      </trkpt>
      <trkpt lat="47.06404" lon="5.36523">
        <ele>192</ele>
        <time>2012-04-06T17:01:33Z</time>
      </trkpt>
      <trkpt lat="47.06365" lon="5.36679">
        <ele>191</ele>
        <time>2012-04-06T17:01:51Z</time>
      </trkpt>
      <trkpt lat="47.06328" lon="5.36852">
        <ele>191</ele>
        <time>2012-04-06T17:02:11Z</time>
      </trkpt>
      <trkpt lat="47.06291" lon="5.37039">
        <ele>190</ele>
        <time>2012-04-06T17:02:33Z</time>
      </trkpt>
      <trkpt lat="47.06263" lon="5.37167">
        <ele>190</ele>
        <time>2012-04-06T17:02:49Z</time>
      </trkpt>
      <trkpt lat="47.06255" lon="5.37214">
        <ele>191</ele>
        <time>2012-04-06T17:03:00Z</time>
      </trkpt>
      <trkpt lat="47.06253" lon="5.37217">
        <ele>191</ele>
        <time>2012-04-06T17:03:01Z</time>
      </trkpt>
      <trkpt lat="47.06245" lon="5.37241">
        <ele>191</ele>
        <time>2012-04-06T17:03:05Z</time>
      </trkpt>
      <trkpt lat="47.06208" lon="5.37424">
        <ele>192</ele>
        <time>2012-04-06T17:03:26Z</time>
      </trkpt>
      <trkpt lat="47.06172" lon="5.37583">
        <ele>192</ele>
        <time>2012-04-06T17:03:44Z</time>
      </trkpt>
      <trkpt lat="47.0614" lon="5.37735">
        <ele>192</ele>
        <time>2012-04-06T17:04:03Z</time>
      </trkpt>
      <trkpt lat="47.06108" lon="5.37893">
        <ele>192</ele>
        <time>2012-04-06T17:04:22Z</time>
      </trkpt>
      <trkpt lat="47.0607" lon="5.38074">
        <ele>192</ele>
        <time>2012-04-06T17:04:43Z</time>
      </trkpt>
      <trkpt lat="47.06029" lon="5.38249">
        <ele>193</ele>
        <time>2012-04-06T17:05:03Z</time>
      </trkpt>
      <trkpt lat="47.06026" lon="5.38257">
        <ele>192</ele>
        <time>2012-04-06T17:05:04Z</time>
      </trkpt>
      <trkpt lat="47.06008" lon="5.38285">
        <ele>192</ele>
        <time>2012-04-06T17:05:08Z</time>
      </trkpt>
      <trkpt lat="47.05948" lon="5.38347">
        <ele>192</ele>
        <time>2012-04-06T17:05:20Z</time>
      </trkpt>
      <trkpt lat="47.05898" lon="5.3839">
        <ele>192</ele>
        <time>2012-04-06T17:05:29Z</time>
      </trkpt>
      <trkpt lat="47.05882" lon="5.38408">
        <ele>192</ele>
        <time>2012-04-06T17:05:32Z</time>
      </trkpt>
      <trkpt lat="47.05863" lon="5.38447">
        <ele>192</ele>
        <time>2012-04-06T17:05:37Z</time>
      </trkpt>
      <trkpt lat="47.05848" lon="5.38594">
        <ele>193</ele>
        <time>2012-04-06T17:05:53Z</time>
      </trkpt>
      <trkpt lat="47.05837" lon="5.38722">
        <ele>193</ele>
        <time>2012-04-06T17:06:07Z</time>
      </trkpt>
      <trkpt lat="47.05788" lon="5.3881">
        <ele>194</ele>
        <time>2012-04-06T17:06:20Z</time>
      </trkpt>
      <trkpt lat="47.05772" lon="5.38837">
        <ele>194</ele>
        <time>2012-04-06T17:06:24Z</time>
      </trkpt>
      <trkpt lat="47.05731" lon="5.38928">
        <ele>194</ele>
        <time>2012-04-06T17:06:36Z</time>
      </trkpt>
      <trkpt lat="47.05706" lon="5.3897">
        <ele>194</ele>
        <time>2012-04-06T17:06:42Z</time>
      </trkpt>
      <trkpt lat="47.05616" lon="5.39054">
        <ele>195</ele>
        <time>2012-04-06T17:06:58Z</time>
      </trkpt>
      <trkpt lat="47.05531" lon="5.39133">
        <ele>194</ele>
        <time>2012-04-06T17:07:13Z</time>
      </trkpt>
      <trkpt lat="47.05486" lon="5.39192">
        <ele>194</ele>
        <time>2012-04-06T17:07:22Z</time>
      </trkpt>
      <trkpt lat="47.05418" lon="5.39249">
        <ele>195</ele>
        <time>2012-04-06T17:07:34Z</time>
      </trkpt>
      <trkpt lat="47.05295" lon="5.39336">
        <ele>194</ele>
        <time>2012-04-06T17:07:55Z</time>
      </trkpt>
      <trkpt lat="47.05173" lon="5.39428">
        <ele>195</ele>
        <time>2012-04-06T17:08:17Z</time>
      </trkpt>
      <trkpt lat="47.05149" lon="5.39446">
        <ele>195</ele>
        <time>2012-04-06T17:08:21Z</time>
      </trkpt>
      <trkpt lat="47.05042" lon="5.39524">
        <ele>195</ele>
        <time>2012-04-06T17:08:39Z</time>
      </trkpt>
      <trkpt lat="47.04961" lon="5.39551">
        <ele>195</ele>
        <time>2012-04-06T17:08:52Z</time>
      </trkpt>
      <trkpt lat="47.0487" lon="5.39609">
        <ele>195</ele>
        <time>2012-04-06T17:09:07Z</time>
      </trkpt>
      <trkpt lat="47.04781" lon="5.39667">
        <ele>195</ele>
        <time>2012-04-06T17:09:22Z</time>
      </trkpt>
      <trkpt lat="47.04708" lon="5.3974">
        <ele>195</ele>
        <time>2012-04-06T17:09:35Z</time>
      </trkpt>
      <trkpt lat="47.04634" lon="5.39804">
        <ele>196</ele>
        <time>2012-04-06T17:09:48Z</time>
      </trkpt>
      <trkpt lat="47.04566" lon="5.3986">
        <ele>195</ele>
        <time>2012-04-06T17:10:01Z</time>
      </trkpt>
      <trkpt lat="47.04479" lon="5.39918">
        <ele>196</ele>
        <time>2012-04-06T17:10:16Z</time>
      </trkpt>
      <trkpt lat="47.04404" lon="5.39963">
        <ele>196</ele>
        <time>2012-04-06T17:10:31Z</time>
      </trkpt>
      <trkpt lat="47.04316" lon="5.4002">
        <ele>196</ele>
        <time>2012-04-06T17:10:49Z</time>
      </trkpt>
      <trkpt lat="47.04202" lon="5.40095">
        <ele>196</ele>
        <time>2012-04-06T17:11:09Z</time>
      </trkpt>
      <trkpt lat="47.04122" lon="5.40163">
        <ele>196</ele>
        <time>2012-04-06T17:11:25Z</time>
      </trkpt>
      <trkpt lat="47.04117" lon="5.40168">
        <ele>196</ele>
        <time>2012-04-06T17:11:26Z</time>
      </trkpt>
      <trkpt lat="47.04059" lon="5.40253">
        <ele>196</ele>
        <time>2012-04-06T17:11:41Z</time>
      </trkpt>
      <trkpt lat="47.0405" lon="5.40295">
        <ele>197</ele>
        <time>2012-04-06T17:11:48Z</time>
      </trkpt>
      <trkpt lat="47.04057" lon="5.40339">
        <ele>196</ele>
        <time>2012-04-06T17:11:54Z</time>
      </trkpt>
      <trkpt lat="47.04067" lon="5.40366">
        <ele>196</ele>
        <time>2012-04-06T17:11:58Z</time>
      </trkpt>
      <trkpt lat="47.04075" lon="5.40378">
        <ele>196</ele>
        <time>2012-04-06T17:12:00Z</time>
      </trkpt>
      <trkpt lat="47.0415" lon="5.40423">
        <ele>196</ele>
        <time>2012-04-06T17:12:14Z</time>
      </trkpt>
      <trkpt lat="47.0424" lon="5.40507">
        <ele>195</ele>
        <time>2012-04-06T17:12:32Z</time>
      </trkpt>
      <trkpt lat="47.0437" lon="5.40642">
        <ele>196</ele>
        <time>2012-04-06T17:12:59Z</time>
      </trkpt>
      <trkpt lat="47.04415" lon="5.40687">
        <ele>195</ele>
        <time>2012-04-06T17:13:09Z</time>
      </trkpt>
      <trkpt lat="47.04427" lon="5.40704">
        <ele>196</ele>
        <time>2012-04-06T17:13:12Z</time>
      </trkpt>
      <trkpt lat="47.04442" lon="5.40724">
        <ele>196</ele>
        <time>2012-04-06T17:13:16Z</time>
      </trkpt>
      <trkpt lat="47.04473" lon="5.40803">
        <ele>196</ele>
        <time>2012-04-06T17:13:28Z</time>
      </trkpt>
      <trkpt lat="47.04475" lon="5.40812">
        <ele>196</ele>
        <time>2012-04-06T17:13:29Z</time>
      </trkpt>
      <trkpt lat="47.04476" lon="5.40939">
        <ele>196</ele>
        <time>2012-04-06T17:13:45Z</time>
      </trkpt>
      <trkpt lat="47.04476" lon="5.40953">
        <ele>196</ele>
        <time>2012-04-06T17:13:47Z</time>
      </trkpt>
      <trkpt lat="47.04459" lon="5.41007">
        <ele>196</ele>
        <time>2012-04-06T17:14:00Z</time>
      </trkpt>
      <trkpt lat="47.04446" lon="5.41039">
        <ele>196</ele>
        <time>2012-04-06T17:14:10Z</time>
      </trkpt>
      <trkpt lat="47.04446" lon="5.41041">
        <ele>196</ele>
        <time>2012-04-06T17:14:11Z</time>
      </trkpt>
      <trkpt lat="47.0445" lon="5.41045">
        <ele>196</ele>
        <time>2012-04-06T17:14:15Z</time>
      </trkpt>
      <trkpt lat="47.04482" lon="5.41029">
        <ele>197</ele>
        <time>2012-04-06T17:14:27Z</time>
      </trkpt>
      <trkpt lat="47.04549" lon="5.41034">
        <ele>196</ele>
        <time>2012-04-06T17:14:40Z</time>
      </trkpt>
      <trkpt lat="47.04614" lon="5.41032">
        <ele>196</ele>
        <time>2012-04-06T17:14:52Z</time>
      </trkpt>
      <trkpt lat="47.0467" lon="5.41026">
        <ele>197</ele>
        <time>2012-04-06T17:15:03Z</time>
      </trkpt>
      <trkpt lat="47.04691" lon="5.41018">
        <ele>197</ele>
        <time>2012-04-06T17:15:07Z</time>
      </trkpt>
      <trkpt lat="47.04731" lon="5.40982">
        <ele>196</ele>
        <time>2012-04-06T17:15:16Z</time>
      </trkpt>
      <trkpt lat="47.04764" lon="5.40997">
        <ele>195</ele>
        <time>2012-04-06T17:15:24Z</time>
      </trkpt>
      <trkpt lat="47.04766" lon="5.41005">
        <ele>195</ele>
        <time>2012-04-06T17:15:25Z</time>
      </trkpt>
      <trkpt lat="47.04781" lon="5.4117">
        <ele>196</ele>
        <time>2012-04-06T17:15:45Z</time>
      </trkpt>
      <trkpt lat="47.04769" lon="5.41323">
        <ele>196</ele>
        <time>2012-04-06T17:16:04Z</time>
      </trkpt>
      <trkpt lat="47.0476" lon="5.41363">
        <ele>195</ele>
        <time>2012-04-06T17:16:15Z</time>
      </trkpt>
      <trkpt lat="47.04756" lon="5.4137">
        <ele>196</ele>
        <time>2012-04-06T17:16:21Z</time>
      </trkpt>
      <trkpt lat="47.04768" lon="5.41394">
        <ele>197</ele>
        <time>2012-04-06T17:16:30Z</time>
      </trkpt>
      <trkpt lat="47.04773" lon="5.41392">
        <ele>197</ele>
        <time>2012-04-06T17:16:31Z</time>
      </trkpt>
      <trkpt lat="47.04782" lon="5.41389">
        <ele>197</ele>
        <time>2012-04-06T17:16:33Z</time>
      </trkpt>
      <trkpt lat="47.04832" lon="5.41394">
        <ele>196</ele>
        <time>2012-04-06T17:16:43Z</time>
      </trkpt>
      <trkpt lat="47.04849" lon="5.41406">
        <ele>197</ele>
        <time>2012-04-06T17:16:47Z</time>
      </trkpt>
      <trkpt lat="47.04867" lon="5.41406">
        <ele>196</ele>
        <time>2012-04-06T17:16:51Z</time>
      </trkpt>
      <trkpt lat="47.04879" lon="5.41394">
        <ele>197</ele>
        <time>2012-04-06T17:16:54Z</time>
      </trkpt>
      <trkpt lat="47.04976" lon="5.41392">
        <ele>196</ele>
        <time>2012-04-06T17:17:11Z</time>
      </trkpt>
      <trkpt lat="47.05143" lon="5.41391">
        <ele>196</ele>
        <time>2012-04-06T17:17:41Z</time>
      </trkpt>
      <trkpt lat="47.05208" lon="5.41392">
        <ele>196</ele>
        <time>2012-04-06T17:17:52Z</time>
      </trkpt>
      <trkpt lat="47.0524" lon="5.41407">
        <ele>197</ele>
        <time>2012-04-06T17:17:58Z</time>
      </trkpt>
      <trkpt lat="47.05262" lon="5.41398">
        <ele>196</ele>
        <time>2012-04-06T17:18:03Z</time>
      </trkpt>
      <trkpt lat="47.05327" lon="5.41392">
        <ele>196</ele>
        <time>2012-04-06T17:18:16Z</time>
      </trkpt>
      <trkpt lat="47.0546" lon="5.41389">
        <ele>197</ele>
        <time>2012-04-06T17:18:38Z</time>
      </trkpt>
      <trkpt lat="47.0561" lon="5.41391">
        <ele>197</ele>
        <time>2012-04-06T17:19:02Z</time>
      </trkpt>
      <trkpt lat="47.05645" lon="5.41404">
        <ele>197</ele>
        <time>2012-04-06T17:19:08Z</time>
      </trkpt>
      <trkpt lat="47.05679" lon="5.41401">
        <ele>196</ele>
        <time>2012-04-06T17:19:14Z</time>
      </trkpt>
      <trkpt lat="47.05696" lon="5.41392">
        <ele>197</ele>
        <time>2012-04-06T17:19:17Z</time>
      </trkpt>
      <trkpt lat="47.0574" lon="5.4139">
        <ele>197</ele>
        <time>2012-04-06T17:19:24Z</time>
      </trkpt>
      <trkpt lat="47.0578" lon="5.41364">
        <ele>196</ele>
        <time>2012-04-06T17:19:32Z</time>
      </trkpt>
      <trkpt lat="47.0582" lon="5.41293">
        <ele>197</ele>
        <time>2012-04-06T17:19:43Z</time>
      </trkpt>
      <trkpt lat="47.05856" lon="5.41267">
        <ele>197</ele>
        <time>2012-04-06T17:19:50Z</time>
      </trkpt>
      <trkpt lat="47.05873" lon="5.41267">
        <ele>197</ele>
        <time>2012-04-06T17:19:53Z</time>
      </trkpt>
      <trkpt lat="47.05888" lon="5.4127">
        <ele>198</ele>
        <time>2012-04-06T17:19:56Z</time>
      </trkpt>
      <trkpt lat="47.05935" lon="5.41269">
        <ele>200</ele>
        <time>2012-04-06T17:20:11Z</time>
      </trkpt>
      <trkpt lat="47.05938" lon="5.41271">
        <ele>200</ele>
        <time>2012-04-06T17:20:35Z</time>
      </trkpt>
      <trkpt lat="47.05938" lon="5.41274">
        <ele>200</ele>
        <time>2012-04-06T17:20:41Z</time>
      </trkpt>
      <trkpt lat="47.05937" lon="5.41339">
        <ele>199</ele>
        <time>2012-04-06T17:20:54Z</time>
      </trkpt>
      <trkpt lat="47.05942" lon="5.41442">
        <ele>199</ele>
        <time>2012-04-06T17:21:11Z</time>
      </trkpt>
      <trkpt lat="47.05944" lon="5.41539">
        <ele>199</ele>
        <time>2012-04-06T17:21:28Z</time>
      </trkpt>
      <trkpt lat="47.05945" lon="5.41698">
        <ele>199</ele>
        <time>2012-04-06T17:21:48Z</time>
      </trkpt>
      <trkpt lat="47.05946" lon="5.41851">
        <ele>199</ele>
        <time>2012-04-06T17:22:05Z</time>
      </trkpt>
      <trkpt lat="47.05949" lon="5.42109">
        <ele>199</ele>
        <time>2012-04-06T17:22:34Z</time>
      </trkpt>
      <trkpt lat="47.05948" lon="5.4237">
        <ele>200</ele>
        <time>2012-04-06T17:23:01Z</time>
      </trkpt>
      <trkpt lat="47.05946" lon="5.4261">
        <ele>199</ele>
        <time>2012-04-06T17:23:25Z</time>
      </trkpt>
      <trkpt lat="47.05944" lon="5.42669">
        <ele>201</ele>
        <time>2012-04-06T17:23:35Z</time>
      </trkpt>
      <trkpt lat="47.05943" lon="5.42672">
        <ele>201</ele>
        <time>2012-04-06T17:23:37Z</time>
      </trkpt>
      <trkpt lat="47.05946" lon="5.42678">
        <ele>202</ele>
        <time>2012-04-06T17:23:41Z</time>
      </trkpt>
      <trkpt lat="47.05965" lon="5.42677">
        <ele>202</ele>
        <time>2012-04-06T17:23:52Z</time>
      </trkpt>
      <trkpt lat="47.05966" lon="5.42726">
        <ele>200</ele>
        <time>2012-04-06T17:24:00Z</time>
      </trkpt>
      <trkpt lat="47.05967" lon="5.42854">
        <ele>199</ele>
        <time>2012-04-06T17:24:14Z</time>
      </trkpt>
      <trkpt lat="47.05965" lon="5.42915">
        <ele>200</ele>
        <time>2012-04-06T17:24:21Z</time>
      </trkpt>
      <trkpt lat="47.05961" lon="5.42941">
        <ele>199</ele>
        <time>2012-04-06T17:24:24Z</time>
      </trkpt>
      <trkpt lat="47.05965" lon="5.42985">
        <ele>199</ele>
        <time>2012-04-06T17:24:30Z</time>
      </trkpt>
      <trkpt lat="47.05968" lon="5.43123">
        <ele>199</ele>
        <time>2012-04-06T17:24:45Z</time>
      </trkpt>
      <trkpt lat="47.05968" lon="5.43352">
        <ele>200</ele>
        <time>2012-04-06T17:25:09Z</time>
      </trkpt>
      <trkpt lat="47.05969" lon="5.43632">
        <ele>200</ele>
        <time>2012-04-06T17:25:38Z</time>
      </trkpt>
      <trkpt lat="47.05969" lon="5.43641">
        <ele>200</ele>
        <time>2012-04-06T17:25:39Z</time>
      </trkpt>
      <trkpt lat="47.05971" lon="5.43663">
        <ele>201</ele>
        <time>2012-04-06T17:25:42Z</time>
      </trkpt>
      <trkpt lat="47.05974" lon="5.43706">
        <ele>201</ele>
        <time>2012-04-06T17:25:47Z</time>
      </trkpt>
      <trkpt lat="47.05973" lon="5.43749">
        <ele>201</ele>
        <time>2012-04-06T17:25:52Z</time>
      </trkpt>
      <trkpt lat="47.05971" lon="5.43766">
        <ele>200</ele>
        <time>2012-04-06T17:25:54Z</time>
      </trkpt>
      <trkpt lat="47.0595" lon="5.43829">
        <ele>200</ele>
        <time>2012-04-06T17:26:02Z</time>
      </trkpt>
      <trkpt lat="47.05875" lon="5.43936">
        <ele>199</ele>
        <time>2012-04-06T17:26:20Z</time>
      </trkpt>
      <trkpt lat="47.05783" lon="5.4406">
        <ele>200</ele>
        <time>2012-04-06T17:26:40Z</time>
      </trkpt>
      <trkpt lat="47.0567" lon="5.44203">
        <ele>200</ele>
        <time>2012-04-06T17:27:03Z</time>
      </trkpt>
      <trkpt lat="47.05657" lon="5.44206">
        <ele>200</ele>
        <time>2012-04-06T17:27:06Z</time>
      </trkpt>
      <trkpt lat="47.05638" lon="5.44219">
        <ele>199</ele>
        <time>2012-04-06T17:27:10Z</time>
      </trkpt>
      <trkpt lat="47.05625" lon="5.44253">
        <ele>201</ele>
        <time>2012-04-06T17:27:15Z</time>
      </trkpt>
      <trkpt lat="47.05623" lon="5.44259">
        <ele>202</ele>
        <time>2012-04-06T17:27:16Z</time>
      </trkpt>
      <trkpt lat="47.05558" lon="5.44343">
        <ele>202</ele>
        <time>2012-04-06T17:27:31Z</time>
      </trkpt>
      <trkpt lat="47.05548" lon="5.44372">
        <ele>202</ele>
        <time>2012-04-06T17:27:35Z</time>
      </trkpt>
      <trkpt lat="47.05544" lon="5.44397">
        <ele>202</ele>
        <time>2012-04-06T17:27:38Z</time>
      </trkpt>
      <trkpt lat="47.05548" lon="5.44429">
        <ele>202</ele>
        <time>2012-04-06T17:27:42Z</time>
      </trkpt>
      <trkpt lat="47.05607" lon="5.4461">
        <ele>202</ele>
        <time>2012-04-06T17:28:05Z</time>
      </trkpt>
      <trkpt lat="47.05671" lon="5.4482">
        <ele>203</ele>
        <time>2012-04-06T17:28:30Z</time>
      </trkpt>
      <trkpt lat="47.05746" lon="5.45062">
        <ele>202</ele>
        <time>2012-04-06T17:28:57Z</time>
      </trkpt>
      <trkpt lat="47.05822" lon="5.45302">
        <ele>203</ele>
        <time>2012-04-06T17:29:22Z</time>
      </trkpt>
      <trkpt lat="47.05878" lon="5.45476">
        <ele>203</ele>
        <time>2012-04-06T17:29:40Z</time>
      </trkpt>
      <trkpt lat="47.05935" lon="5.45661">
        <ele>202</ele>
        <time>2012-04-06T17:30:01Z</time>
      </trkpt>
      <trkpt lat="47.06007" lon="5.45893">
        <ele>202</ele>
        <time>2012-04-06T17:30:27Z</time>
      </trkpt>
      <trkpt lat="47.06053" lon="5.46044">
        <ele>201</ele>
        <time>2012-04-06T17:30:46Z</time>
      </trkpt>
      <trkpt lat="47.06087" lon="5.46097">
        <ele>201</ele>
        <time>2012-04-06T17:30:58Z</time>
      </trkpt>
      <trkpt lat="47.06106" lon="5.46106">
        <ele>201</ele>
        <time>2012-04-06T17:31:03Z</time>
      </trkpt>
      <trkpt lat="47.06162" lon="5.46147">
        <ele>201</ele>
        <time>2012-04-06T17:31:17Z</time>
      </trkpt>
      <trkpt lat="47.0622" lon="5.46187">
        <ele>202</ele>
        <time>2012-04-06T17:31:33Z</time>
      </trkpt>
      <trkpt lat="47.06225" lon="5.46189">
        <ele>201</ele>
        <time>2012-04-06T17:31:34Z</time>
      </trkpt>
      <trkpt lat="47.0632" lon="5.4626">
        <ele>201</ele>
        <time>2012-04-06T17:31:54Z</time>
      </trkpt>
      <trkpt lat="47.06402" lon="5.46332">
        <ele>202</ele>
        <time>2012-04-06T17:32:10Z</time>
      </trkpt>
      <trkpt lat="47.06527" lon="5.46428">
        <ele>201</ele>
        <time>2012-04-06T17:32:31Z</time>
      </trkpt>
      <trkpt lat="47.06642" lon="5.46522">
        <ele>201</ele>
        <time>2012-04-06T17:32:50Z</time>
      </trkpt>
      <trkpt lat="47.06738" lon="5.46596">
        <ele>202</ele>
        <time>2012-04-06T17:33:05Z</time>
      </trkpt>
      <trkpt lat="47.06826" lon="5.46652">
        <ele>202</ele>
        <time>2012-04-06T17:33:19Z</time>
      </trkpt>
      <trkpt lat="47.06946" lon="5.46745">
        <ele>202</ele>
        <time>2012-04-06T17:33:39Z</time>
      </trkpt>
      <trkpt lat="47.07091" lon="5.46863">
        <ele>202</ele>
        <time>2012-04-06T17:34:02Z</time>
      </trkpt>
      <trkpt lat="47.07171" lon="5.46927">
        <ele>201</ele>
        <time>2012-04-06T17:34:16Z</time>
      </trkpt>
      <trkpt lat="47.07191" lon="5.46954">
        <ele>202</ele>
        <time>2012-04-06T17:34:20Z</time>
      </trkpt>
      <trkpt lat="47.0724" lon="5.46994">
        <ele>202</ele>
        <time>2012-04-06T17:34:28Z</time>
      </trkpt>
      <trkpt lat="47.0727" lon="5.47027">
        <ele>202</ele>
        <time>2012-04-06T17:34:34Z</time>
      </trkpt>
      <trkpt lat="47.07281" lon="5.47031">
        <ele>202</ele>
        <time>2012-04-06T17:34:36Z</time>
      </trkpt>
      <trkpt lat="47.07352" lon="5.47084">
        <ele>201</ele>
        <time>2012-04-06T17:34:49Z</time>
      </trkpt>
      <trkpt lat="47.07454" lon="5.47165">
        <ele>202</ele>
        <time>2012-04-06T17:35:06Z</time>
      </trkpt>
      <trkpt lat="47.0758" lon="5.47264">
        <ele>202</ele>
        <time>2012-04-06T17:35:26Z</time>
      </trkpt>
      <trkpt lat="47.07586" lon="5.47269">
        <ele>202</ele>
        <time>2012-04-06T17:35:27Z</time>
      </trkpt>
      <trkpt lat="47.07608" lon="5.47297">
        <ele>201</ele>
        <time>2012-04-06T17:35:31Z</time>
      </trkpt>
      <trkpt lat="47.07707" lon="5.47454">
        <ele>202</ele>
        <time>2012-04-06T17:35:51Z</time>
      </trkpt>
      <trkpt lat="47.07794" lon="5.47587">
        <ele>202</ele>
        <time>2012-04-06T17:36:08Z</time>
      </trkpt>
      <trkpt lat="47.07888" lon="5.4773">
        <ele>202</ele>
        <time>2012-04-06T17:36:27Z</time>
      </trkpt>
      <trkpt lat="47.07931" lon="5.47796">
        <ele>203</ele>
        <time>2012-04-06T17:36:36Z</time>
      </trkpt>
      <trkpt lat="47.07984" lon="5.47883">
        <ele>203</ele>
        <time>2012-04-06T17:36:50Z</time>
      </trkpt>
      <trkpt lat="47.08043" lon="5.47979">
        <ele>204</ele>
        <time>2012-04-06T17:37:05Z</time>
      </trkpt>
      <trkpt lat="47.08128" lon="5.4806">
        <ele>204</ele>
        <time>2012-04-06T17:37:21Z</time>
      </trkpt>
      <trkpt lat="47.08204" lon="5.48148">
        <ele>204</ele>
        <time>2012-04-06T17:37:36Z</time>
      </trkpt>
      <trkpt lat="47.08236" lon="5.48203">
        <ele>204</ele>
        <time>2012-04-06T17:37:44Z</time>
      </trkpt>
      <trkpt lat="47.08275" lon="5.48264">
        <ele>204</ele>
        <time>2012-04-06T17:37:53Z</time>
      </trkpt>
      <trkpt lat="47.08287" lon="5.48286">
        <ele>204</ele>
        <time>2012-04-06T17:37:56Z</time>
      </trkpt>
      <trkpt lat="47.08371" lon="5.48381">
        <ele>205</ele>
        <time>2012-04-06T17:38:12Z</time>
      </trkpt>
      <trkpt lat="47.08488" lon="5.48572">
        <ele>205</ele>
        <time>2012-04-06T17:38:37Z</time>
      </trkpt>
      <trkpt lat="47.08503" lon="5.48595">
        <ele>204</ele>
        <time>2012-04-06T17:38:41Z</time>
      </trkpt>
      <trkpt lat="47.08524" lon="5.48628">
        <ele>203</ele>
        <time>2012-04-06T17:38:50Z</time>
      </trkpt>
      <trkpt lat="47.08526" lon="5.48635">
        <ele>203</ele>
        <time>2012-04-06T17:38:53Z</time>
      </trkpt>
      <trkpt lat="47.08534" lon="5.48644">
        <ele>203</ele>
        <time>2012-04-06T17:38:58Z</time>
      </trkpt>
      <trkpt lat="47.0857" lon="5.48705">
        <ele>203</ele>
        <time>2012-04-06T17:39:16Z</time>
      </trkpt>
      <trkpt lat="47.08614" lon="5.488">
        <ele>203</ele>
        <time>2012-04-06T17:39:34Z</time>
      </trkpt>
      <trkpt lat="47.08654" lon="5.48894">
        <ele>203</ele>
        <time>2012-04-06T17:39:53Z</time>
      </trkpt>
      <trkpt lat="47.08662" lon="5.48909">
        <ele>203</ele>
        <time>2012-04-06T17:39:56Z</time>
      </trkpt>
      <trkpt lat="47.08708" lon="5.49018">
        <ele>203</ele>
        <time>2012-04-06T17:40:13Z</time>
      </trkpt>
      <trkpt lat="47.08734" lon="5.49087">
        <ele>203</ele>
        <time>2012-04-06T17:40:24Z</time>
      </trkpt>
      <trkpt lat="47.08797" lon="5.49157">
        <ele>204</ele>
        <time>2012-04-06T17:40:40Z</time>
      </trkpt>
      <trkpt lat="47.08835" lon="5.4918">
        <ele>204</ele>
        <time>2012-04-06T17:40:48Z</time>
      </trkpt>
      <trkpt lat="47.08872" lon="5.49243">
        <ele>204</ele>
        <time>2012-04-06T17:40:59Z</time>
      </trkpt>
      <trkpt lat="47.0887" lon="5.4927">
        <ele>206</ele>
        <time>2012-04-06T17:41:05Z</time>
      </trkpt>
      <trkpt lat="47.08865" lon="5.49273">
        <ele>206</ele>
        <time>2012-04-06T17:41:07Z</time>
      </trkpt>
      <trkpt lat="47.08865" lon="5.49292">
        <ele>205</ele>
        <time>2012-04-06T17:41:11Z</time>
      </trkpt>
      <trkpt lat="47.08876" lon="5.49329">
        <ele>204</ele>
        <time>2012-04-06T17:41:16Z</time>
      </trkpt>
      <trkpt lat="47.08894" lon="5.49411">
        <ele>207</ele>
        <time>2012-04-06T17:41:31Z</time>
      </trkpt>
      <trkpt lat="47.08896" lon="5.49418">
        <ele>208</ele>
        <time>2012-04-06T17:41:43Z</time>
      </trkpt>
      <trkpt lat="47.08874" lon="5.49433">
        <ele>208</ele>
        <time>2012-04-06T17:41:52Z</time>
      </trkpt>
      <trkpt lat="47.08826" lon="5.49469">
        <ele>209</ele>
        <time>2012-04-06T17:42:04Z</time>
      </trkpt>
      <trkpt lat="47.08745" lon="5.49521">
        <ele>209</ele>
        <time>2012-04-06T17:42:17Z</time>
      </trkpt>
      <trkpt lat="47.08704" lon="5.49494">
        <ele>206</ele>
        <time>2012-04-06T17:42:24Z</time>
      </trkpt>
      <trkpt lat="47.08702" lon="5.49474">
        <ele>207</ele>
        <time>2012-04-06T17:42:26Z</time>
      </trkpt>
      <trkpt lat="47.08703" lon="5.49451">
        <ele>206</ele>
        <time>2012-04-06T17:42:28Z</time>
      </trkpt>
      <trkpt lat="47.08678" lon="5.49339">
        <ele>204</ele>
        <time>2012-04-06T17:42:39Z</time>
      </trkpt>
      <trkpt lat="47.08604" lon="5.49148">
        <ele>204</ele>
        <time>2012-04-06T17:43:00Z</time>
      </trkpt>
      <trkpt lat="47.08496" lon="5.49018">
        <ele>205</ele>
        <time>2012-04-06T17:43:19Z</time>
      </trkpt>
      <trkpt lat="47.08407" lon="5.48871">
        <ele>204</ele>
        <time>2012-04-06T17:43:39Z</time>
      </trkpt>
      <trkpt lat="47.08398" lon="5.48839">
        <ele>204</ele>
        <time>2012-04-06T17:43:43Z</time>
      </trkpt>
      <trkpt lat="47.08374" lon="5.48817">
        <ele>204</ele>
        <time>2012-04-06T17:43:48Z</time>
      </trkpt>
      <trkpt lat="47.08285" lon="5.48677">
        <ele>204</ele>
        <time>2012-04-06T17:44:08Z</time>
      </trkpt>
      <trkpt lat="47.08191" lon="5.48557">
        <ele>203</ele>
        <time>2012-04-06T17:44:26Z</time>
      </trkpt>
      <trkpt lat="47.0809" lon="5.4848">
        <ele>204</ele>
        <time>2012-04-06T17:44:42Z</time>
      </trkpt>
      <trkpt lat="47.08048" lon="5.48495">
        <ele>204</ele>
        <time>2012-04-06T17:44:49Z</time>
      </trkpt>
      <trkpt lat="47.08044" lon="5.48504">
        <ele>204</ele>
        <time>2012-04-06T17:44:50Z</time>
      </trkpt>
      <trkpt lat="47.07982" lon="5.48691">
        <ele>204</ele>
        <time>2012-04-06T17:45:10Z</time>
      </trkpt>
      <trkpt lat="47.07919" lon="5.48884">
        <ele>205</ele>
        <time>2012-04-06T17:45:31Z</time>
      </trkpt>
      <trkpt lat="47.07907" lon="5.48918">
        <ele>205</ele>
        <time>2012-04-06T17:45:35Z</time>
      </trkpt>
      <trkpt lat="47.07855" lon="5.48959">
        <ele>204</ele>
        <time>2012-04-06T17:45:44Z</time>
      </trkpt>
      <trkpt lat="47.07813" lon="5.48933">
        <ele>205</ele>
        <time>2012-04-06T17:45:52Z</time>
      </trkpt>
      <trkpt lat="47.07811" lon="5.48925">
        <ele>205</ele>
        <time>2012-04-06T17:45:53Z</time>
      </trkpt>
      <trkpt lat="47.07778" lon="5.48876">
        <ele>206</ele>
        <time>2012-04-06T17:46:02Z</time>
      </trkpt>
      <trkpt lat="47.07756" lon="5.4889">
        <ele>206</ele>
        <time>2012-04-06T17:46:06Z</time>
      </trkpt>
      <trkpt lat="47.07726" lon="5.48892">
        <ele>206</ele>
        <time>2012-04-06T17:46:11Z</time>
      </trkpt>
      <trkpt lat="47.07693" lon="5.4892">
        <ele>206</ele>
        <time>2012-04-06T17:46:18Z</time>
      </trkpt>
      <trkpt lat="47.07673" lon="5.48987">
        <ele>206</ele>
        <time>2012-04-06T17:46:26Z</time>
      </trkpt>
      <trkpt lat="47.07595" lon="5.4909">
        <ele>207</ele>
        <time>2012-04-06T17:46:41Z</time>
      </trkpt>
      <trkpt lat="47.07543" lon="5.49099">
        <ele>207</ele>
        <time>2012-04-06T17:46:49Z</time>
      </trkpt>
      <trkpt lat="47.07533" lon="5.49086">
        <ele>206</ele>
        <time>2012-04-06T17:46:51Z</time>
      </trkpt>
      <trkpt lat="47.07514" lon="5.49046">
        <ele>204</ele>
        <time>2012-04-06T17:47:00Z</time>
      </trkpt>
      <trkpt lat="47.07515" lon="5.49059">
        <ele>204</ele>
        <time>2012-04-06T17:47:06Z</time>
      </trkpt>
      <trkpt lat="47.07521" lon="5.49069">
        <ele>204</ele>
        <time>2012-04-06T17:47:17Z</time>
      </trkpt>
      <trkpt lat="47.07522" lon="5.49067">
        <ele>204</ele>
        <time>2012-04-06T17:49:17Z</time>
      </trkpt>
      <trkpt lat="47.07522" lon="5.4907">
        <ele>204</ele>
        <time>2012-04-06T17:49:59Z</time>
      </trkpt>
      <trkpt lat="47.0752" lon="5.49068">
        <ele>205</ele>
        <time>2012-04-06T17:50:34Z</time>
      </trkpt>
      <trkpt lat="47.0752" lon="5.49068">
        <ele>205</ele>
        <time>2012-04-06T17:50:50Z</time>
      </trkpt>
      <trkpt lat="47.07524" lon="5.4907">
        <ele>205</ele>
        <time>2012-04-06T17:51:10Z</time>
      </trkpt>
      <trkpt lat="47.07524" lon="5.49071">
        <ele>205</ele>
        <time>2012-04-06T17:51:40Z</time>
      </trkpt>
      <trkpt lat="47.07524" lon="5.49073">
        <ele>205</ele>
        <time>2012-04-06T17:51:58Z</time>
      </trkpt>
    </trkseg>
  </trk>
</gpx>